M I D A S
Marine Information and Data Acquisition System
Tripno 1832 of the Zeeleeuw from 2009-09-08 06:42:32 to 2009-09-08 15:46:46
Back to CruiseResearch ActivitiesStationsMapUnderway DataData graphs

EquipmentUnitsComment
TimeDGPSUTC
LatitudeDGPSDM.mWGS84
LongitudeDGPSDM.mWGS84
TemperatureSBE03/SBE38deg celciusITS90
ConductivitySBE21S/mITS90
SalinitySBE21 Practical Salinity Units
ChlorophylAChelsea fluorimeterg/lCalibrated in Aceton
Missing or incorrect values are displayed as -999
Sea surface data collected by the RV Zeeleeuw from 2009-09-08 06:35:41 to 2009-09-08 17:01:32
                                                                                    Next 1000 lines
Time Latitude Longitude Temperature Conductivity Salinity ChlorophylA
2009-09-08 06:35:50 51°13.662 2°55.954 21.3851 0.055586 0.296501 39.047094
2009-09-08 06:35:56 51°13.663 2°55.95 21.443 0.054557 0.29087 39.047094
2009-09-08 06:36:01 51°13.664 2°55.946 21.446 0.054557 0.29087 39.047094
2009-09-08 06:36:06 51°13.665 2°55.942 21.4441 0.056203 0.299887 39.047094
2009-09-08 06:36:12 51°13.667 2°55.935 21.4617 0.055689 0.297074 39.047094
2009-09-08 06:36:17 51°13.668 2°55.93 21.4567 0.056718 0.302716 39.047094
2009-09-08 06:36:23 51°13.67 2°55.923 21.4607 0.0561 0.299338 39.047094
2009-09-08 06:36:29 51°13.672 2°55.915 21.4594 0.056512 0.301593 39.01227
2009-09-08 06:36:34 51°13.674 2°55.908 21.4688 0.056512 0.301593 39.01227
2009-09-08 06:36:40 51°13.677 2°55.899 21.4648 0.056306 0.300471 39.01227
2009-09-08 06:36:45 51°13.679 2°55.892 21.4688 0.056409 0.30104 39.01227
2009-09-08 06:36:50 51°13.681 2°55.884 21.4664 0.056512 0.301609 39.047094
2009-09-08 06:36:54 51°13.682 2°55.877 21.4705 0.056615 0.302173 39.01227
2009-09-08 06:37:00 51°13.684 2°55.868 21.4685 0.056615 0.302173 39.01227
2009-09-08 06:37:05 51°13.686 2°55.859 21.4708 0.056615 0.302173 39.01227
2009-09-08 06:37:09 51°13.687 2°55.852 21.4709 0.056409 0.301045 39.01227
2009-09-08 06:37:14 51°13.689 2°55.844 21.4703 0.056512 0.301609 39.01227
2009-09-08 06:37:20 51°13.691 2°55.833 21.4734 0.056615 0.302168 39.01227
2009-09-08 06:37:25 51°13.692 2°55.825 21.4756 0.056512 0.301604 39.01227
2009-09-08 06:37:30 51°13.693 2°55.817 21.4781 0.056615 0.302173 39.01227
2009-09-08 06:37:35 51°13.694 2°55.809 21.4806 0.056615 0.302173 39.01227
2009-09-08 06:37:40 51°13.694 2°55.801 21.4854 0.056512 0.301604 39.01227
2009-09-08 06:37:45 51°13.695 2°55.794 21.4986 0.056615 0.302168 39.01227
2009-09-08 06:37:50 51°13.695 2°55.787 21.497 0.056615 0.302173 39.01227
2009-09-08 06:37:54 51°13.695 2°55.781 21.4951 0.056615 0.302173 39.01227
2009-09-08 06:38:00 51°13.695 2°55.774 21.495 0.056512 0.301609 39.01227
2009-09-08 06:38:05 51°13.695 2°55.767 21.4963 0.056512 0.301609 39.01227
2009-09-08 06:38:10 51°13.695 2°55.761 21.4934 0.056615 0.302173 39.01227
2009-09-08 06:38:14 51°13.695 2°55.757 21.4952 0.056718 0.302737 39.01227
2009-09-08 06:38:19 51°13.695 2°55.752 21.4855 0.056718 0.302737 39.01227
2009-09-08 06:38:24 51°13.694 2°55.748 21.4905 0.056512 0.301609 39.01227
2009-09-08 06:38:29 51°13.694 2°55.744 21.4961 0.056615 0.302173 39.01227
2009-09-08 06:38:34 51°13.694 2°55.742 21.4971 0.056615 0.302173 39.01227
2009-09-08 06:38:38 51°13.694 2°55.74 21.4944 0.056615 0.302173 39.01227
2009-09-08 06:38:43 51°13.694 2°55.739 21.4966 0.056615 0.302178 39.01227
2009-09-08 06:38:48 51°13.694 2°55.738 21.4987 0.056615 0.302178 39.01227
2009-09-08 06:38:53 51°13.695 2°55.737 21.5007 0.056718 0.302747 39.01227
2009-09-08 06:38:58 51°13.696 2°55.737 21.5065 0.056923 0.30388 39.01227
2009-09-08 06:39:02 51°13.696 2°55.737 21.5177 0.056923 0.30388 39.01227
2009-09-08 06:39:07 51°13.698 2°55.737 21.5206 0.056615 0.302188 39.01227
2009-09-08 06:39:12 51°13.699 2°55.738 21.5242 0.056821 0.303316 39.01227
2009-09-08 06:39:17 51°13.701 2°55.738 21.5318 0.056512 0.301624 39.01227
2009-09-08 06:39:22 51°13.703 2°55.739 21.5396 0.056615 0.302193 39.01227
2009-09-08 06:39:26 51°13.705 2°55.739 21.5469 0.060217 0.321977 39.01227
2009-09-08 06:39:30 51°13.707 2°55.739 21.544 0.060217 0.321977 39.01227
2009-09-08 06:39:36 51°13.711 2°55.739 21.5485 0.061143 0.327101 39.01227
2009-09-08 06:39:41 51°13.714 2°55.738 21.5457 0.061143 0.327112 39.01227
2009-09-08 06:39:46 51°13.717 2°55.737 21.5606 0.061349 0.328251 39.01227
2009-09-08 06:39:51 51°13.721 2°55.736 21.5526 0.067523 0.362354 39.01227
2009-09-08 06:39:56 51°13.724 2°55.734 21.5611 0.065465 0.35099 39.01227
2009-09-08 06:40:01 51°13.728 2°55.731 21.5616 0.065465 0.35099 39.01227
2009-09-08 06:40:06 51°13.732 2°55.727 21.5419 0.064848 0.347579 39.01227
2009-09-08 06:40:11 51°13.736 2°55.723 21.5164 0.061554 0.329401 39.01227
2009-09-08 06:40:16 51°13.741 2°55.718 21.4808 0.060937 0.325979 39.01227
2009-09-08 06:40:21 51°13.746 2°55.713 21.4653 0.060011 0.320862 39.01227
2009-09-08 06:40:26 51°13.751 2°55.708 21.4477 0.059908 0.320285 39.01227
2009-09-08 06:40:31 51°13.757 2°55.702 21.4487 0.059908 0.320285 39.01227
2009-09-08 06:40:36 51°13.763 2°55.696 21.4467 0.059702 0.319149 39.047094
2009-09-08 06:40:41 51°13.77 2°55.69 21.4469 0.059393 0.317452 39.01227
2009-09-08 06:40:46 51°13.777 2°55.683 21.4436 0.059393 0.317452 39.047094
2009-09-08 06:40:50 51°13.782 2°55.678 21.4469 0.058673 0.3135 39.01227
2009-09-08 06:40:56 51°13.791 2°55.668 21.4582 0.058158 0.310675 39.01227
2009-09-08 06:41:01 51°13.8 2°55.661 21.458 0.058158 0.310675 39.01227
2009-09-08 06:41:06 51°13.808 2°55.654 21.445 0.058364 0.31181 39.01227
2009-09-08 06:41:11 51°13.817 2°55.647 21.4725 0.057953 0.309556 39.01227
2009-09-08 06:41:16 51°13.827 2°55.639 21.4598 0.057541 0.307298 39.01227
2009-09-08 06:41:21 51°13.836 2°55.632 21.4685 0.056923 0.303906 39.01227
2009-09-08 06:41:26 51°13.846 2°55.624 21.4752 0.057747 0.308427 39.01227
2009-09-08 06:41:31 51°13.856 2°55.616 21.4744 0.057747 0.308427 39.01227
2009-09-08 06:41:36 51°13.866 2°55.609 21.4725 0.057232 0.305604 39.01227
2009-09-08 06:41:41 51°13.877 2°55.601 21.4753 0.056923 0.303912 39.01227
2009-09-08 06:41:46 51°13.887 2°55.594 21.4721 0.056512 0.301655 39.047094
2009-09-08 06:41:50 51°13.896 2°55.588 21.4724 0.056923 0.303912 39.01227
2009-09-08 06:41:56 51°13.908 2°55.578 21.4722 0.056306 0.300527 39.01227
2009-09-08 06:42:01 51°13.919 2°55.571 21.4751 0.056203 0.299964 39.01227
2009-09-08 06:42:06 51°13.93 2°55.563 21.4742 0.056203 0.299964 39.01227
2009-09-08 06:42:10 51°13.939 2°55.557 21.4828 0.057026 0.304476 39.01227
2009-09-08 06:42:16 51°13.953 2°55.548 21.4885 0.056615 0.302219 39.01227
2009-09-08 06:42:21 51°13.964 2°55.539 21.4831 0.056512 0.301655 39.01227
2009-09-08 06:42:26 51°13.975 2°55.532 21.4883 0.056306 0.300527 39.01227
2009-09-08 06:42:31 51°13.987 2°55.523 21.4914 0.056306 0.300527 39.01227
2009-09-08 06:42:36 51°13.999 2°55.515 21.4773 0.056306 0.300527 39.01227
2009-09-08 06:42:41 51°14.01 2°55.507 21.4869 0.055689 0.29714 39.01227
2009-09-08 06:42:46 51°14.022 2°55.498 21.4875 0.055689 0.297135 39.01227
2009-09-08 06:42:51 51°14.035 2°55.49 21.4892 0.057335 0.306164 39.01227
2009-09-08 06:42:56 51°14.047 2°55.481 21.5011 0.056821 0.303353 39.01227
2009-09-08 06:43:01 51°14.06 2°55.472 21.4918 0.056821 0.303353 39.01227
2009-09-08 06:43:06 51°14.072 2°55.463 21.4876 0.056615 0.30223 39.01227
2009-09-08 06:43:11 51°14.085 2°55.454 21.5012 0.055483 0.296018 39.01227
2009-09-08 06:43:16 51°14.097 2°55.444 21.4923 0.056409 0.301096 39.01227
2009-09-08 06:43:21 51°14.11 2°55.433 21.4961 0.056821 0.303353 39.01227
2009-09-08 06:43:26 51°14.123 2°55.423 21.4928 0.055689 0.297145 39.01227
2009-09-08 06:43:31 51°14.136 2°55.412 21.5112 0.055689 0.297145 39.01227
2009-09-08 06:43:36 51°14.148 2°55.4 21.5501 0.056203 0.299969 38.977445
2009-09-08 06:43:41 51°14.161 2°55.387 21.5442 0.059187 0.316364 39.01227
2009-09-08 06:43:46 51°14.173 2°55.374 21.5346 0.058879 0.314679 39.01227
2009-09-08 06:43:51 51°14.185 2°55.36 21.5233 0.056923 0.303948 39.01227
2009-09-08 06:43:56 51°14.197 2°55.346 21.5237 0.059085 0.315815 39.01227
2009-09-08 06:44:01 51°14.208 2°55.331 21.535 0.059085 0.315815 39.01227
2009-09-08 06:44:06 51°14.219 2°55.316 21.48 0.057335 0.3062 39.01227
2009-09-08 06:44:11 51°14.23 2°55.299 21.4287 0.056306 0.300548 39.01227
2009-09-08 06:44:16 51°14.241 2°55.283 21.4768 0.055689 0.297145 39.01227
2009-09-08 06:44:21 51°14.252 2°55.266 21.4881 0.057335 0.306174 39.01227
2009-09-08 06:44:26 51°14.262 2°55.249 21.4769 0.055174 0.294318 38.977445
2009-09-08 06:44:31 51°14.273 2°55.232 21.4712 0.055174 0.294318 38.977445
2009-09-08 06:44:36 51°14.283 2°55.215 21.5038 0.055997 0.298811 38.977445
2009-09-08 06:44:41 51°14.294 2°55.197 21.4733 0.0561 0.299374 39.01227
2009-09-08 06:44:46 51°14.304 2°55.179 21.4431 0.055071 0.293735 39.01227
2009-09-08 06:44:50 51°14.313 2°55.165 21.4724 0.054042 0.288097 39.01227
2009-09-08 06:44:56 51°14.326 2°55.143 21.4769 0.053013 0.28247 39.01227
2009-09-08 06:45:01 51°14.337 2°55.125 21.4294 0.053013 0.28247 39.01227
2009-09-08 06:45:06 51°14.347 2°55.106 21.4366 0.053013 0.282474 39.01227
2009-09-08 06:45:11 51°14.358 2°55.088 21.4238 0.052601 0.280218 39.01227
2009-09-08 06:45:16 51°14.37 2°55.07 21.4769 0.05291 0.281903 39.01227
2009-09-08 06:45:21 51°14.381 2°55.052 21.4537 0.054762 0.292051 39.01227
2009-09-08 06:45:26 51°14.393 2°55.034 21.4572 0.053425 0.284737 39.01227
2009-09-08 06:45:31 51°14.404 2°55.017 21.4154 0.05219 0.277976 38.977445
2009-09-08 06:45:36 51°14.416 2°55 21.4317 0.05219 0.277976 38.977445
2009-09-08 06:45:41 51°14.428 2°54.984 21.4579 0.052704 0.280779 38.977445
2009-09-08 06:45:46 51°14.441 2°54.968 21.4379 0.052087 0.27741 39.01227
2009-09-08 06:45:51 51°14.453 2°54.953 21.4201 0.052498 0.279651 39.01227
2009-09-08 06:45:56 51°14.466 2°54.938 21.4364 0.051984 0.276839 39.01227
2009-09-08 06:46:01 51°14.48 2°54.924 21.4658 0.052498 0.279651 39.01227
2009-09-08 06:46:06 51°14.493 2°54.91 21.5267 0.052498 0.279651 39.01227
2009-09-08 06:46:11 51°14.506 2°54.897 21.5172 0.056203 0.299943 39.01227
2009-09-08 06:46:16 51°14.519 2°54.882 21.5057 0.0561 0.299431 39.01227
2009-09-08 06:46:21 51°14.532 2°54.868 21.48 0.055071 0.2938 39.01227
2009-09-08 06:46:26 51°14.546 2°54.854 21.4931 0.055277 0.294927 39.01227
2009-09-08 06:46:31 51°14.559 2°54.841 21.5002 0.055277 0.294927 39.01227
2009-09-08 06:46:36 51°14.572 2°54.827 21.4615 0.056306 0.300563 38.977445
2009-09-08 06:46:41 51°14.586 2°54.814 21.4988 0.055997 0.298867 39.01227
2009-09-08 06:46:46 51°14.599 2°54.8 21.481 0.05538 0.29548 38.977445
2009-09-08 06:46:51 51°14.613 2°54.787 21.4905 0.055071 0.293785 38.977445
2009-09-08 06:46:56 51°14.626 2°54.773 21.4987 0.056718 0.302814 39.01227
2009-09-08 06:47:01 51°14.639 2°54.76 21.4914 0.056718 0.302814 39.01227
2009-09-08 06:47:06 51°14.652 2°54.747 21.4985 0.055689 0.297181 39.01227
2009-09-08 06:47:11 51°14.666 2°54.734 21.515 0.056306 0.300574 39.01227
2009-09-08 06:47:16 51°14.679 2°54.72 21.5009 0.058879 0.314695 39.01227
2009-09-08 06:47:21 51°14.693 2°54.707 21.5329 0.057438 0.306786 38.977445
2009-09-08 06:47:26 51°14.706 2°54.694 21.5162 0.058673 0.313581 39.01227
2009-09-08 06:47:30 51°14.717 2°54.683 21.5229 0.057541 0.307361 39.01227
2009-09-08 06:47:36 51°14.733 2°54.666 21.4951 0.057541 0.307361 39.01227
2009-09-08 06:47:41 51°14.746 2°54.652 21.4961 0.056821 0.303415 39.01227
2009-09-08 06:47:46 51°14.759 2°54.638 21.5179 0.057026 0.304533 39.01227
2009-09-08 06:47:50 51°14.769 2°54.627 21.519 0.057026 0.304523 39.01227
2009-09-08 06:47:56 51°14.785 2°54.61 21.5034 0.0561 0.299446 39.01227
2009-09-08 06:48:01 51°14.798 2°54.596 21.4911 0.057232 0.305646 39.01227
2009-09-08 06:48:06 51°14.811 2°54.582 21.5088 0.057232 0.305646 39.01227
2009-09-08 06:48:10 51°14.822 2°54.571 21.5264 0.055791 0.297755 39.01227
2009-09-08 06:48:16 51°14.837 2°54.555 21.4686 0.057335 0.306232 39.01227
2009-09-08 06:48:21 51°14.851 2°54.541 21.5205 0.055997 0.298892 39.01227
2009-09-08 06:48:26 51°14.864 2°54.528 21.5232 0.056409 0.301153 39.01227
2009-09-08 06:48:30 51°14.875 2°54.518 21.5208 0.056409 0.301153 39.01227
2009-09-08 06:48:36 51°14.89 2°54.501 21.5153 0.056409 0.301148 39.01227
2009-09-08 06:48:41 51°14.904 2°54.488 21.51 0.056203 0.30002 39.01227
2009-09-08 06:48:46 51°14.917 2°54.475 21.5128 0.057438 0.306791 38.977445
2009-09-08 06:48:51 51°14.93 2°54.461 21.5145 0.056821 0.303405 39.01227
2009-09-08 06:48:56 51°14.943 2°54.448 21.518 0.056409 0.301148 39.01227
2009-09-08 06:49:01 51°14.956 2°54.435 21.4955 0.055483 0.296064 39.01227
2009-09-08 06:49:06 51°14.97 2°54.422 21.5335 0.055483 0.296064 39.01227
2009-09-08 06:49:11 51°14.983 2°54.409 21.5002 0.058055 0.31018 39.01227
2009-09-08 06:49:16 51°14.996 2°54.396 21.5208 0.057129 0.305092 39.01227
2009-09-08 06:49:21 51°15.01 2°54.382 21.5102 0.056306 0.300589 39.01227
2009-09-08 06:49:26 51°15.023 2°54.369 21.5078 0.0561 0.299461 39.01227
2009-09-08 06:49:31 51°15.036 2°54.356 21.5132 0.057129 0.305108 39.01227
2009-09-08 06:49:36 51°15.05 2°54.343 21.4985 0.057129 0.305108 39.01227
2009-09-08 06:49:41 51°15.063 2°54.33 21.5253 0.055277 0.294957 39.01227
2009-09-08 06:49:46 51°15.077 2°54.316 21.5142 0.056203 0.300025 39.01227
2009-09-08 06:49:51 51°15.09 2°54.303 21.5159 0.056615 0.302281 39.01227
2009-09-08 06:49:56 51°15.103 2°54.29 21.5115 0.058261 0.31132 39.01227
2009-09-08 06:50:01 51°15.117 2°54.277 21.536 0.058261 0.31132 39.01227
2009-09-08 06:50:06 51°15.131 2°54.265 21.537 0.05785 0.309066 39.01227
2009-09-08 06:50:10 51°15.141 2°54.254 21.5107 0.057644 0.307936 39.01227
2009-09-08 06:50:16 51°15.158 2°54.239 21.5216 0.0561 0.299451 39.01227
2009-09-08 06:50:21 51°15.171 2°54.225 21.5151 0.056512 0.301707 38.977445
2009-09-08 06:50:26 51°15.185 2°54.212 21.5049 0.056306 0.300584 39.01227
2009-09-08 06:50:30 51°15.195 2°54.202 21.5164 0.056306 0.300584 39.01227
2009-09-08 06:50:36 51°15.212 2°54.186 21.5234 0.056718 0.302845 39.01227
2009-09-08 06:50:41 51°15.225 2°54.173 21.5357 0.058158 0.31076 38.977445
2009-09-08 06:50:46 51°15.238 2°54.16 21.4928 0.058158 0.310776 39.01227
2009-09-08 06:50:51 51°15.252 2°54.147 21.5201 0.058879 0.314749 39.01227
2009-09-08 06:50:56 51°15.265 2°54.134 21.5156 0.057129 0.305145 39.01227
2009-09-08 06:51:01 51°15.279 2°54.12 21.5279 0.056821 0.30343 39.01227
2009-09-08 06:51:06 51°15.292 2°54.107 21.5039 0.056821 0.30343 39.01227
2009-09-08 06:51:11 51°15.305 2°54.094 21.5063 0.056203 0.300035 39.01227
2009-09-08 06:51:16 51°15.319 2°54.081 21.5237 0.057541 0.307366 38.977445
2009-09-08 06:51:21 51°15.333 2°54.068 21.5504 0.05785 0.309076 39.01227
2009-09-08 06:51:26 51°15.346 2°54.056 21.5222 0.057644 0.307957 39.01227
2009-09-08 06:51:31 51°15.36 2°54.042 21.5144 0.056409 0.301184 39.01227
2009-09-08 06:51:36 51°15.373 2°54.029 21.4965 0.056409 0.301184 39.01227
2009-09-08 06:51:41 51°15.386 2°54.016 21.5224 0.056718 0.302871 39.01227
2009-09-08 06:51:46 51°15.4 2°54.004 21.4932 0.057438 0.306828 39.01227
2009-09-08 06:51:51 51°15.414 2°53.991 21.4963 0.055071 0.293845 39.01227
2009-09-08 06:51:56 51°15.428 2°53.979 21.5254 0.057541 0.307382 39.01227
2009-09-08 06:52:01 51°15.442 2°53.966 21.5191 0.057541 0.307382 39.01227
2009-09-08 06:52:06 51°15.455 2°53.954 21.5167 0.056512 0.301738 39.01227
2009-09-08 06:52:11 51°15.469 2°53.941 21.5232 0.055791 0.29779 39.01227
2009-09-08 06:52:16 51°15.483 2°53.928 21.5101 0.056203 0.300046 39.01227
2009-09-08 06:52:21 51°15.497 2°53.916 21.4934 0.055586 0.296658 39.01227
2009-09-08 06:52:26 51°15.511 2°53.903 21.5262 0.056512 0.301738 39.01227
2009-09-08 06:52:30 51°15.522 2°53.893 21.5226 0.056512 0.301738 39.01227
2009-09-08 06:52:36 51°15.538 2°53.878 21.5101 0.056203 0.300051 39.01227
2009-09-08 06:52:41 51°15.552 2°53.865 21.5172 0.0561 0.299487 39.01227
2009-09-08 06:52:46 51°15.566 2°53.852 21.5297 0.055997 0.298913 39.01227
2009-09-08 06:52:50 51°15.577 2°53.842 21.5506 0.054248 0.289316 39.01227
2009-09-08 06:52:56 51°15.593 2°53.826 21.5359 0.057026 0.304544 38.977445
2009-09-08 06:53:01 51°15.607 2°53.813 21.5074 0.055894 0.298339 39.01227
2009-09-08 06:53:06 51°15.621 2°53.8 21.5236 0.055894 0.298339 39.01227
2009-09-08 06:53:11 51°15.634 2°53.787 21.5442 0.056306 0.300594 38.977445
2009-09-08 06:53:16 51°15.648 2°53.775 21.5223 0.056718 0.302877 39.01227
2009-09-08 06:53:21 51°15.662 2°53.761 21.4981 0.054659 0.291592 39.01227
2009-09-08 06:53:26 51°15.675 2°53.748 21.5018 0.055174 0.294399 38.977445
2009-09-08 06:53:31 51°15.689 2°53.735 21.5518 0.055174 0.294399 38.977445
2009-09-08 06:53:36 51°15.703 2°53.721 21.5267 0.057232 0.305688 38.977445
2009-09-08 06:53:41 51°15.716 2°53.708 21.49 0.055997 0.298923 39.01227
2009-09-08 06:53:46 51°15.73 2°53.695 21.5406 0.055483 0.296099 38.977445
2009-09-08 06:53:50 51°15.741 2°53.685 21.5295 0.058879 0.31476 38.977445
2009-09-08 06:53:56 51°15.757 2°53.669 21.532 0.055689 0.297247 39.01227
2009-09-08 06:54:01 51°15.771 2°53.656 21.5032 0.055689 0.297247 39.01227
2009-09-08 06:54:06 51°15.785 2°53.643 21.5303 0.056409 0.301199 38.977445
2009-09-08 06:54:11 51°15.799 2°53.63 21.5327 0.056615 0.302312 39.01227
2009-09-08 06:54:16 51°15.812 2°53.617 21.5302 0.057232 0.305699 39.01227
2009-09-08 06:54:21 51°15.826 2°53.603 21.5261 0.056821 0.303436 38.977445
2009-09-08 06:54:26 51°15.84 2°53.59 21.4876 0.054659 0.291587 38.977445
2009-09-08 06:54:31 51°15.853 2°53.577 21.5438 0.057438 0.306817 38.977445
2009-09-08 06:54:36 51°15.867 2°53.564 21.5277 0.057438 0.306817 38.977445
2009-09-08 06:54:41 51°15.881 2°53.551 21.5352 0.056409 0.301194 39.01227
2009-09-08 06:54:46 51°15.895 2°53.538 21.5246 0.057026 0.304585 38.977445
2009-09-08 06:54:50 51°15.906 2°53.527 21.5502 0.055277 0.294992 39.01227
2009-09-08 06:54:56 51°15.922 2°53.511 21.5312 0.056409 0.30121 38.977445
2009-09-08 06:55:01 51°15.936 2°53.498 21.5476 0.057953 0.309673 38.977445
2009-09-08 06:55:06 51°15.95 2°53.485 21.5252 0.057953 0.309673 38.977445
2009-09-08 06:55:10 51°15.961 2°53.475 21.5381 0.055586 0.296683 38.977445
2009-09-08 06:55:16 51°15.977 2°53.459 21.521 0.059187 0.316457 38.977445
2009-09-08 06:55:21 51°15.991 2°53.445 21.5352 0.057232 0.305725 38.977445
2009-09-08 06:55:26 51°16.004 2°53.432 21.5522 0.057026 0.304596 38.977445
2009-09-08 06:55:31 51°16.018 2°53.418 21.5389 0.057026 0.304596 38.977445
2009-09-08 06:55:36 51°16.032 2°53.405 21.5147 0.057232 0.305725 39.01227
2009-09-08 06:55:41 51°16.045 2°53.391 21.5155 0.054351 0.289913 38.977445
2009-09-08 06:55:46 51°16.059 2°53.377 21.5323 0.054042 0.28821 39.01227
2009-09-08 06:55:51 51°16.072 2°53.364 21.5312 0.057129 0.305129 39.01227
2009-09-08 06:55:56 51°16.086 2°53.35 21.5314 0.054762 0.292161 39.01227
2009-09-08 06:56:01 51°16.1 2°53.337 21.5472 0.054762 0.292161 39.01227
2009-09-08 06:56:06 51°16.113 2°53.324 21.5435 0.056409 0.301189 38.977445
2009-09-08 06:56:11 51°16.127 2°53.311 21.5443 0.055689 0.297247 38.977445
2009-09-08 06:56:16 51°16.141 2°53.298 21.5403 0.055894 0.298385 38.977445
2009-09-08 06:56:21 51°16.155 2°53.285 21.546 0.057541 0.307424 39.01227
2009-09-08 06:56:26 51°16.169 2°53.272 21.5379 0.056306 0.300651 38.977445
2009-09-08 06:56:31 51°16.182 2°53.259 21.5389 0.055174 0.294444 39.01227
2009-09-08 06:56:36 51°16.196 2°53.246 21.5396 0.055174 0.294444 39.01227
2009-09-08 06:56:41 51°16.21 2°53.233 21.5527 0.055174 0.294434 39.01227
2009-09-08 06:56:46 51°16.224 2°53.22 21.5715 0.055894 0.298379 39.01227
2009-09-08 06:56:51 51°16.238 2°53.207 21.5117 0.0561 0.299523 38.977445
2009-09-08 06:56:56 51°16.251 2°53.194 21.5447 0.054762 0.292176 38.977445
2009-09-08 06:57:01 51°16.265 2°53.181 21.5578 0.054762 0.292176 38.977445
2009-09-08 06:57:06 51°16.279 2°53.168 21.554 0.056718 0.302897 38.977445
2009-09-08 06:57:11 51°16.293 2°53.154 21.5324 0.057129 0.305165 38.977445
2009-09-08 06:57:16 51°16.307 2°53.141 21.5741 0.056718 0.302913 39.01227
2009-09-08 06:57:21 51°16.321 2°53.128 21.5414 0.057026 0.304606 38.977445
2009-09-08 06:57:26 51°16.335 2°53.115 21.5328 0.057747 0.308548 38.977445
2009-09-08 06:57:31 51°16.348 2°53.102 21.5191 0.057747 0.308548 38.977445
2009-09-08 06:57:36 51°16.362 2°53.088 21.537 0.05538 0.295561 39.01227
2009-09-08 06:57:41 51°16.376 2°53.075 21.5406 0.056409 0.301194 38.977445
2009-09-08 06:57:46 51°16.39 2°53.062 21.5367 0.057747 0.308554 38.977445
2009-09-08 06:57:51 51°16.404 2°53.049 21.5403 0.056409 0.301235 38.977445
2009-09-08 06:57:56 51°16.418 2°53.035 21.5566 0.055997 0.298984 38.977445
2009-09-08 06:58:01 51°16.431 2°53.023 21.57 0.057438 0.306912 38.977445
2009-09-08 06:58:06 51°16.445 2°53.009 21.5566 0.057438 0.306912 38.977445
2009-09-08 06:58:11 51°16.459 2°52.996 21.5453 0.0561 0.299584 38.977445
2009-09-08 06:58:16 51°16.473 2°52.982 21.5467 0.055791 0.297887 38.977445
2009-09-08 06:58:21 51°16.486 2°52.969 21.538 0.0561 0.299564 38.977445
2009-09-08 06:58:26 51°16.5 2°52.956 21.5291 0.0561 0.299569 39.01227
2009-09-08 06:58:31 51°16.514 2°52.943 21.5513 0.055689 0.297308 39.01227
2009-09-08 06:58:36 51°16.528 2°52.93 21.5341 0.055689 0.297308 39.01227
2009-09-08 06:58:41 51°16.542 2°52.917 21.5571 0.057644 0.308068 38.977445
2009-09-08 06:58:46 51°16.555 2°52.904 21.5628 0.058364 0.312046 38.977445
2009-09-08 06:58:50 51°16.567 2°52.893 21.5675 0.058261 0.31148 38.977445
2009-09-08 06:58:56 51°16.583 2°52.878 21.5654 0.057129 0.305254 38.977445
2009-09-08 06:59:01 51°16.597 2°52.865 21.5608 0.057129 0.305254 38.977445
2009-09-08 06:59:06 51°16.611 2°52.851 21.5459 0.057438 0.306933 38.977445
2009-09-08 06:59:10 51°16.622 2°52.841 21.5428 0.054865 0.292794 38.977445
2009-09-08 06:59:16 51°16.638 2°52.825 21.5713 0.055071 0.293901 38.977445
2009-09-08 06:59:21 51°16.652 2°52.812 21.5516 0.057335 0.306331 38.977445
2009-09-08 06:59:26 51°16.666 2°52.799 21.557 0.055791 0.297856 39.01227
2009-09-08 06:59:30 51°16.677 2°52.788 21.5503 0.055791 0.297856 39.01227
2009-09-08 06:59:36 51°16.693 2°52.771 21.5799 0.054865 0.292779 38.942621
2009-09-08 06:59:41 51°16.707 2°52.758 21.5643 0.057232 0.305761 38.977445
2009-09-08 06:59:46 51°16.721 2°52.744 21.5724 0.056615 0.302374 38.977445
2009-09-08 06:59:51 51°16.734 2°52.731 21.5894 0.056512 0.301815 38.977445
2009-09-08 06:59:56 51°16.748 2°52.717 21.5371 0.055483 0.296165 38.977445
2009-09-08 07:00:01 51°16.762 2°52.704 21.5126 0.054968 0.293322 38.977445
2009-09-08 07:00:06 51°16.776 2°52.692 21.5153 0.054968 0.293322 38.977445
2009-09-08 07:00:11 51°16.79 2°52.681 21.5534 0.055791 0.297846 38.977445
2009-09-08 07:00:16 51°16.804 2°52.67 21.5296 0.057953 0.309726 38.977445
2009-09-08 07:00:21 51°16.818 2°52.66 21.578 0.0561 0.299574 39.01227
2009-09-08 07:00:26 51°16.833 2°52.651 21.5094 0.064745 0.347208 38.942621
2009-09-08 07:00:31 51°16.847 2°52.641 21.5562 0.064745 0.347208 38.942621
2009-09-08 07:00:36 51°16.862 2°52.633 21.5265 0.059085 0.316043 39.01227
2009-09-08 07:00:41 51°16.877 2°52.625 21.5383 0.061657 0.330228 38.977445
2009-09-08 07:00:46 51°16.891 2°52.617 21.5327 0.060217 0.322265 38.977445
2009-09-08 07:00:51 51°16.906 2°52.609 21.5317 0.060217 0.322259 38.977445
2009-09-08 07:00:56 51°16.921 2°52.602 21.5095 0.057232 0.305814 38.977445
2009-09-08 07:01:01 51°16.936 2°52.594 21.5341 0.057232 0.305814 38.977445
2009-09-08 07:01:06 51°16.95 2°52.587 21.5457 0.055894 0.298456 38.977445
2009-09-08 07:01:11 51°16.965 2°52.58 21.5608 0.055997 0.299005 38.977445
2009-09-08 07:01:16 51°16.98 2°52.573 21.5316 0.054968 0.293367 38.977445
2009-09-08 07:01:21 51°16.995 2°52.566 21.504 0.054557 0.291104 38.977445
2009-09-08 07:01:26 51°17.01 2°52.56 21.5247 0.054968 0.293347 38.977445
2009-09-08 07:01:31 51°17.025 2°52.553 21.528 0.054351 0.289958 38.977445
2009-09-08 07:01:36 51°17.04 2°52.547 21.5392 0.054351 0.289958 38.977445
2009-09-08 07:01:41 51°17.055 2°52.54 21.5524 0.054659 0.291652 38.977445
2009-09-08 07:01:46 51°17.07 2°52.533 21.5095 0.052601 0.280413 38.977445
2009-09-08 07:01:51 51°17.085 2°52.527 21.5086 0.050749 0.270282 38.977445
2009-09-08 07:01:56 51°17.1 2°52.519 21.4939 0.057335 0.306384 38.977445
2009-09-08 07:02:01 51°17.115 2°52.515 21.4779 0.056718 0.303027 39.01227
2009-09-08 07:02:06 51°17.13 2°52.509 21.4802 0.056718 0.303027 39.01227
2009-09-08 07:02:11 51°17.145 2°52.506 21.5187 0.055689 0.297409 39.01227
2009-09-08 07:02:16 51°17.16 2°52.502 21.4878 0.057129 0.305333 39.01227
2009-09-08 07:02:21 51°17.176 2°52.499 21.4637 0.054762 0.29235 38.977445
2009-09-08 07:02:26 51°17.191 2°52.495 21.4799 0.054659 0.291747 39.01227
2009-09-08 07:02:31 51°17.206 2°52.492 21.4661 0.054659 0.291747 39.01227
2009-09-08 07:02:36 51°17.221 2°52.49 21.4682 0.052498 0.279908 39.01227
2009-09-08 07:02:41 51°17.237 2°52.487 21.4675 0.051778 0.275956 39.01227
2009-09-08 07:02:46 51°17.252 2°52.485 21.4853 0.052087 0.277627 38.977445
2009-09-08 07:02:51 51°17.267 2°52.482 21.4758 0.051469 0.274243 38.977445
2009-09-08 07:02:56 51°17.282 2°52.48 21.4621 0.050543 0.269183 39.01227
2009-09-08 07:03:01 51°17.298 2°52.478 21.4883 0.050543 0.269183 39.01227
2009-09-08 07:03:06 51°17.313 2°52.476 21.4879 0.051984 0.277037 38.977445
2009-09-08 07:03:11 51°17.328 2°52.473 21.4848 0.051675 0.275352 39.01227
2009-09-08 07:03:16 51°17.343 2°52.472 21.4661 0.049823 0.265245 39.01227
2009-09-08 07:03:21 51°17.359 2°52.469 21.4654 0.050029 0.266366 38.977445
2009-09-08 07:03:26 51°17.374 2°52.467 21.4795 0.050234 0.267483 39.01227
2009-09-08 07:03:31 51°17.389 2°52.464 21.4923 0.049823 0.265227 39.01227
2009-09-08 07:03:36 51°17.405 2°52.462 21.4724 0.049823 0.265227 39.01227
2009-09-08 07:03:41 51°17.42 2°52.459 21.4861 0.04972 0.264667 38.977445
2009-09-08 07:03:46 51°17.435 2°52.457 21.4946 0.049823 0.265231 39.01227
2009-09-08 07:03:50 51°17.447 2°52.455 21.4823 0.05044 0.268586 38.977445
2009-09-08 07:03:56 51°17.466 2°52.452 21.4926 0.050852 0.270843 38.977445
2009-09-08 07:04:01 51°17.481 2°52.45 21.4968 0.050646 0.269721 38.977445
2009-09-08 07:04:06 51°17.496 2°52.448 21.5009 0.050646 0.269721 38.977445
2009-09-08 07:04:10 51°17.509 2°52.446 21.4944 0.049514 0.263564 39.01227
2009-09-08 07:04:16 51°17.527 2°52.443 21.4843 0.049308 0.262439 38.977445
2009-09-08 07:04:21 51°17.542 2°52.44 21.4765 0.05219 0.278161 38.977445
2009-09-08 07:04:26 51°17.558 2°52.438 21.5031 0.051572 0.2748 39.01227
2009-09-08 07:04:31 51°17.573 2°52.436 21.4991 0.051572 0.2748 39.01227
2009-09-08 07:04:36 51°17.588 2°52.434 21.4749 0.05044 0.268631 39.01227
2009-09-08 07:04:41 51°17.604 2°52.431 21.4915 0.050234 0.267487 39.01227
2009-09-08 07:04:46 51°17.619 2°52.429 21.4992 0.049926 0.265819 39.01227
2009-09-08 07:04:51 51°17.634 2°52.427 21.4832 0.053733 0.286615 38.977445
2009-09-08 07:04:56 51°17.65 2°52.425 21.4898 0.051058 0.272007 39.01227
2009-09-08 07:05:01 51°17.665 2°52.423 21.4525 0.05363 0.286062 39.01227
2009-09-08 07:05:06 51°17.681 2°52.42 21.4938 0.05363 0.286062 39.01227
2009-09-08 07:05:11 51°17.696 2°52.419 21.4696 0.052704 0.281014 39.01227
2009-09-08 07:05:16 51°17.712 2°52.416 21.4825 0.053116 0.283282 39.01227
2009-09-08 07:05:21 51°17.727 2°52.415 21.4585 0.053836 0.287226 39.01227
2009-09-08 07:05:26 51°17.742 2°52.413 21.4893 0.054042 0.288367 39.01227
2009-09-08 07:05:31 51°17.758 2°52.411 21.5002 0.053116 0.283302 39.01227
2009-09-08 07:05:36 51°17.773 2°52.409 21.4933 0.053116 0.283302 39.01227
2009-09-08 07:05:41 51°17.789 2°52.407 21.4892 0.053527 0.285557 39.01227
2009-09-08 07:05:46 51°17.804 2°52.405 21.4927 0.052601 0.28049 39.01227
2009-09-08 07:05:51 51°17.819 2°52.403 21.4916 0.052395 0.279365 39.01227
2009-09-08 07:05:56 51°17.835 2°52.401 21.5086 0.051572 0.27487 39.01227
2009-09-08 07:06:01 51°17.85 2°52.399 21.4846 0.052498 0.279932 39.01227
2009-09-08 07:06:06 51°17.866 2°52.397 21.4894 0.052498 0.279932 39.01227
2009-09-08 07:06:11 51°17.881 2°52.395 21.4937 0.052395 0.279365 39.01227
2009-09-08 07:06:16 51°17.897 2°52.393 21.5059 0.051984 0.277122 39.01227
2009-09-08 07:06:21 51°17.912 2°52.391 21.4982 0.051572 0.27487 39.01227
2009-09-08 07:06:26 51°17.928 2°52.389 21.4991 0.05219 0.278246 39.01227
2009-09-08 07:06:31 51°17.943 2°52.386 21.4933 0.05219 0.278246 39.01227
2009-09-08 07:06:36 51°17.958 2°52.384 21.5099 0.052704 0.281071 39.01227
2009-09-08 07:06:41 51°17.974 2°52.382 21.504 0.052087 0.277703 39.01227
2009-09-08 07:06:46 51°17.989 2°52.379 21.5098 0.051881 0.276579 38.977445
2009-09-08 07:06:51 51°18.005 2°52.377 21.4987 0.052087 0.277703 39.01227
2009-09-08 07:06:56 51°18.02 2°52.374 21.5003 0.052498 0.279951 38.977445
2009-09-08 07:07:01 51°18.036 2°52.372 21.498 0.054042 0.288377 39.01227
2009-09-08 07:07:06 51°18.051 2°52.368 21.5167 0.054042 0.288377 39.01227
2009-09-08 07:07:11 51°18.066 2°52.366 21.5137 0.053425 0.284975 39.01227
2009-09-08 07:07:16 51°18.082 2°52.363 21.5124 0.052601 0.280466 38.977445
2009-09-08 07:07:21 51°18.097 2°52.36 21.5167 0.053116 0.283273 38.977445
2009-09-08 07:07:26 51°18.113 2°52.357 21.5072 0.051778 0.275961 39.01227
2009-09-08 07:07:31 51°18.128 2°52.354 21.5171 0.053013 0.28272 38.977445
2009-09-08 07:07:36 51°18.143 2°52.351 21.5202 0.053013 0.28272 38.977445
2009-09-08 07:07:41 51°18.159 2°52.348 21.5146 0.052293 0.278794 38.977445
2009-09-08 07:07:46 51°18.174 2°52.345 21.5268 0.052498 0.279927 38.977445
2009-09-08 07:07:51 51°18.19 2°52.342 21.5129 0.052498 0.279942 38.977445
2009-09-08 07:07:56 51°18.205 2°52.339 21.5061 0.053322 0.284471 38.977445
2009-09-08 07:08:01 51°18.221 2°52.336 21.5159 0.053322 0.284471 38.977445
2009-09-08 07:08:06 51°18.236 2°52.333 21.5345 0.052293 0.278851 39.01227
2009-09-08 07:08:11 51°18.252 2°52.33 21.5165 0.051881 0.276602 38.977445
2009-09-08 07:08:16 51°18.267 2°52.327 21.5222 0.053322 0.284476 38.977445
2009-09-08 07:08:21 51°18.283 2°52.324 21.5385 0.05363 0.286189 38.977445
2009-09-08 07:08:26 51°18.298 2°52.322 21.5315 0.052087 0.277741 38.977445
2009-09-08 07:08:31 51°18.314 2°52.319 21.533 0.052087 0.277741 38.977445
2009-09-08 07:08:36 51°18.33 2°52.316 21.5292 0.053116 0.283379 38.977445
2009-09-08 07:08:41 51°18.345 2°52.313 21.5248 0.051984 0.277183 39.01227
2009-09-08 07:08:46 51°18.36 2°52.31 21.5259 0.051778 0.276031 38.977445
2009-09-08 07:08:51 51°18.376 2°52.306 21.5209 0.053013 0.282768 38.977445
2009-09-08 07:08:56 51°18.391 2°52.303 21.5312 0.051984 0.277141 38.977445
2009-09-08 07:09:01 51°18.407 2°52.3 21.5427 0.052807 0.281638 38.977445
2009-09-08 07:09:06 51°18.422 2°52.297 21.5277 0.052807 0.281638 38.977445
2009-09-08 07:09:11 51°18.438 2°52.293 21.5279 0.051675 0.275465 38.977445
2009-09-08 07:09:16 51°18.453 2°52.29 21.5356 0.053425 0.285053 38.977445
2009-09-08 07:09:21 51°18.469 2°52.287 21.5308 0.052601 0.280561 38.977445
2009-09-08 07:09:26 51°18.484 2°52.284 21.5375 0.051366 0.273812 38.977445
2009-09-08 07:09:31 51°18.5 2°52.281 21.5314 0.052601 0.280576 38.977445
2009-09-08 07:09:36 51°18.515 2°52.278 21.5214 0.052601 0.280576 38.977445
2009-09-08 07:09:41 51°18.531 2°52.274 21.5088 0.051366 0.273826 38.977445
2009-09-08 07:09:46 51°18.546 2°52.271 21.5334 0.052293 0.278889 38.977445
2009-09-08 07:09:51 51°18.562 2°52.268 21.5478 0.051263 0.273278 38.977445
2009-09-08 07:09:56 51°18.578 2°52.265 21.534 0.051881 0.27665 38.977445
2009-09-08 07:10:01 51°18.593 2°52.262 21.5503 0.051881 0.27665 38.977445
2009-09-08 07:10:06 51°18.609 2°52.259 21.532 0.053733 0.286805 38.977445
2009-09-08 07:10:11 51°18.624 2°52.256 21.5395 0.05219 0.278364 38.977445
2009-09-08 07:10:16 51°18.64 2°52.252 21.5249 0.052807 0.281749 38.942621
2009-09-08 07:10:21 51°18.655 2°52.249 21.5267 0.053733 0.286815 38.977445
2009-09-08 07:10:26 51°18.671 2°52.246 21.5345 0.050852 0.271055 38.977445
2009-09-08 07:10:31 51°18.686 2°52.243 21.5421 0.052704 0.281162 38.977445
2009-09-08 07:10:36 51°18.702 2°52.239 21.5502 0.052704 0.281162 38.977445
2009-09-08 07:10:41 51°18.717 2°52.236 21.5506 0.053425 0.285111 38.977445
2009-09-08 07:10:46 51°18.733 2°52.233 21.5546 0.051366 0.27384 38.977445
2009-09-08 07:10:51 51°18.749 2°52.23 21.5415 0.052087 0.277755 38.977445
2009-09-08 07:10:56 51°18.764 2°52.226 21.5318 0.053013 0.282831 38.977445
2009-09-08 07:11:01 51°18.78 2°52.224 21.542 0.052395 0.279451 38.977445
2009-09-08 07:11:06 51°18.795 2°52.221 21.5412 0.052395 0.279451 38.977445
2009-09-08 07:11:11 51°18.811 2°52.218 21.5563 0.053116 0.283374 38.977445
2009-09-08 07:11:16 51°18.826 2°52.215 21.5597 0.052601 0.280561 38.977445
2009-09-08 07:11:21 51°18.842 2°52.211 21.5691 0.053527 0.285655 38.977445
2009-09-08 07:11:26 51°18.858 2°52.208 21.553 0.052704 0.281157 38.977445
2009-09-08 07:11:31 51°18.873 2°52.205 21.5629 0.052704 0.281157 38.977445
2009-09-08 07:11:36 51°18.889 2°52.201 21.5536 0.054454 0.290729 38.977445
2009-09-08 07:11:41 51°18.904 2°52.198 21.5595 0.052807 0.281715 38.977445
2009-09-08 07:11:46 51°18.92 2°52.195 21.5589 0.051469 0.274402 38.977445
2009-09-08 07:11:51 51°18.936 2°52.191 21.5633 0.052807 0.281715 38.977445
2009-09-08 07:11:56 51°18.951 2°52.188 21.5666 0.054248 0.289612 38.942621
2009-09-08 07:12:01 51°18.966 2°52.184 21.5467 0.054248 0.289612 38.942621
2009-09-08 07:12:06 51°18.982 2°52.18 21.5468 0.052807 0.281744 38.977445
2009-09-08 07:12:11 51°18.997 2°52.175 21.5391 0.053013 0.282903 38.977445
2009-09-08 07:12:16 51°19.013 2°52.171 21.5359 0.052601 0.280657 38.977445
2009-09-08 07:12:21 51°19.028 2°52.167 21.5453 0.053733 0.286874 38.942621
2009-09-08 07:12:26 51°19.044 2°52.163 21.5613 0.053013 0.282937 38.977445
2009-09-08 07:12:31 51°19.059 2°52.16 21.5554 0.05219 0.278417 38.977445
2009-09-08 07:12:36 51°19.075 2°52.155 21.5616 0.05219 0.278417 38.977445
2009-09-08 07:12:41 51°19.09 2°52.151 21.5597 0.05291 0.282345 38.942621
2009-09-08 07:12:46 51°19.105 2°52.147 21.5627 0.053425 0.28516 38.942621
2009-09-08 07:12:51 51°19.121 2°52.144 21.571 0.052498 0.28008 38.977445
2009-09-08 07:12:56 51°19.136 2°52.14 21.5683 0.051572 0.274996 38.942621
2009-09-08 07:13:01 51°19.152 2°52.136 21.5652 0.05219 0.278388 38.942621
2009-09-08 07:13:06 51°19.167 2°52.132 21.5544 0.05219 0.278388 38.942621
2009-09-08 07:13:11 51°19.183 2°52.128 21.5671 0.052087 0.277826 38.942621
2009-09-08 07:13:16 51°19.198 2°52.124 21.5739 0.053013 0.282894 38.942621
2009-09-08 07:13:21 51°19.214 2°52.121 21.5666 0.050955 0.27164 38.942621
2009-09-08 07:13:26 51°19.229 2°52.117 21.5554 0.051984 0.277249 38.942621
2009-09-08 07:13:31 51°19.245 2°52.113 21.5892 0.051984 0.277249 38.942621
2009-09-08 07:13:36 51°19.26 2°52.11 21.5869 0.056203 0.300369 38.942621
2009-09-08 07:13:41 51°19.276 2°52.107 21.563 0.053219 0.284039 38.977445
2009-09-08 07:13:46 51°19.291 2°52.103 21.5658 0.053733 0.286854 38.942621
2009-09-08 07:13:51 51°19.307 2°52.1 21.5784 0.054968 0.293613 38.942621
2009-09-08 07:13:56 51°19.322 2°52.097 21.5818 0.052498 0.280104 38.977445
2009-09-08 07:14:01 51°19.338 2°52.094 21.5632 0.052395 0.279532 38.942621
2009-09-08 07:14:06 51°19.353 2°52.091 21.5778 0.052395 0.279532 38.942621
2009-09-08 07:14:11 51°19.369 2°52.088 21.5831 0.054557 0.291363 38.942621
2009-09-08 07:14:16 51°19.384 2°52.086 21.5745 0.052704 0.281229 38.942621
2009-09-08 07:14:21 51°19.4 2°52.083 21.5947 0.053836 0.287442 38.942621
2009-09-08 07:14:26 51°19.415 2°52.08 21.6154 0.054557 0.291412 38.942621
2009-09-08 07:14:31 51°19.431 2°52.077 21.5979 0.053733 0.286967 38.942621
2009-09-08 07:14:36 51°19.446 2°52.074 21.6117 0.053733 0.286967 38.942621
2009-09-08 07:14:41 51°19.462 2°52.069 21.5746 0.055791 0.298249 38.942621
2009-09-08 07:14:46 51°19.477 2°52.064 21.601 0.054145 0.289202 38.977445
2009-09-08 07:14:50 51°19.489 2°52.06 21.5824 0.053013 0.282985 38.942621
2009-09-08 07:14:56 51°19.507 2°52.052 21.5845 0.053425 0.285228 38.942621
2009-09-08 07:15:01 51°19.523 2°52.046 21.602 0.053425 0.285228 38.942621
2009-09-08 07:15:06 51°19.538 2°52.038 21.5636 0.054454 0.290849 38.942621
2009-09-08 07:15:10 51°19.55 2°52.033 21.597 0.053116 0.283515 38.942621
2009-09-08 07:15:16 51°19.568 2°52.024 21.5869 0.053425 0.285223 38.942621
2009-09-08 07:15:21 51°19.583 2°52.016 21.5879 0.053013 0.282961 38.942621
2009-09-08 07:15:26 51°19.599 2°52.008 21.5802 0.051984 0.27733 38.942621
2009-09-08 07:15:31 51°19.614 2°52.001 21.5877 0.051984 0.27733 38.942621
2009-09-08 07:15:36 51°19.629 2°51.993 21.5881 0.053013 0.282952 38.942621
2009-09-08 07:15:41 51°19.644 2°51.985 21.5889 0.053939 0.288045 38.942621
2009-09-08 07:15:46 51°19.659 2°51.977 21.5886 0.054248 0.289761 38.942621
2009-09-08 07:15:51 51°19.675 2°51.97 21.5993 0.05363 0.286365 38.942621
2009-09-08 07:15:56 51°19.69 2°51.961 21.6077 0.053733 0.286908 38.942621
2009-09-08 07:16:01 51°19.705 2°51.953 21.5938 0.053322 0.284646 38.942621
2009-09-08 07:16:06 51°19.72 2°51.945 21.593 0.053322 0.284646 38.942621
2009-09-08 07:16:11 51°19.735 2°51.937 21.6061 0.05291 0.282374 38.942621
2009-09-08 07:16:16 51°19.75 2°51.928 21.6042 0.054042 0.288594 38.942621
2009-09-08 07:16:21 51°19.765 2°51.921 21.5952 0.053836 0.287477 38.907797
2009-09-08 07:16:26 51°19.781 2°51.912 21.611 0.052807 0.28184 38.942621
2009-09-08 07:16:31 51°19.796 2°51.904 21.6076 0.054659 0.291996 38.942621
2009-09-08 07:16:36 51°19.811 2°51.896 21.6018 0.054659 0.291996 38.942621
2009-09-08 07:16:41 51°19.826 2°51.888 21.6099 0.053425 0.285248 38.907797
2009-09-08 07:16:46 51°19.841 2°51.88 21.6154 0.054145 0.289202 38.942621
2009-09-08 07:16:51 51°19.856 2°51.872 21.6136 0.052498 0.280176 38.907797
2009-09-08 07:16:56 51°19.871 2°51.864 21.5962 0.053322 0.28468 38.942621
2009-09-08 07:17:01 51°19.887 2°51.856 21.608 0.053322 0.28468 38.942621
2009-09-08 07:17:06 51°19.902 2°51.848 21.6064 0.053733 0.286933 38.907797
2009-09-08 07:17:11 51°19.917 2°51.84 21.6074 0.053939 0.288065 38.942621
2009-09-08 07:17:16 51°19.932 2°51.832 21.6067 0.052498 0.280176 38.907797
2009-09-08 07:17:21 51°19.947 2°51.824 21.6141 0.053322 0.284694 38.942621
2009-09-08 07:17:26 51°19.963 2°51.816 21.6337 0.054145 0.289222 38.942621
2009-09-08 07:17:31 51°19.978 2°51.808 21.6294 0.055174 0.294892 38.942621
2009-09-08 07:17:36 51°19.993 2°51.8 21.6136 0.055174 0.294892 38.942621
2009-09-08 07:17:41 51°20.008 2°51.792 21.5936 0.052601 0.280787 38.942621
2009-09-08 07:17:46 51°20.023 2°51.783 21.5923 0.052601 0.280763 38.907797
2009-09-08 07:17:51 51°20.039 2°51.775 21.6129 0.053219 0.284121 38.942621
2009-09-08 07:17:56 51°20.053 2°51.765 21.6259 0.053116 0.283563 38.942621
2009-09-08 07:18:01 51°20.068 2°51.757 21.618 0.054454 0.290918 38.942621
2009-09-08 07:18:06 51°20.083 2°51.749 21.6215 0.054454 0.290918 38.942621
2009-09-08 07:18:11 51°20.099 2°51.741 21.6226 0.053733 0.286982 38.942621
2009-09-08 07:18:16 51°20.114 2°51.733 21.6247 0.054762 0.292635 38.907797
2009-09-08 07:18:21 51°20.129 2°51.726 21.6333 0.054865 0.29322 38.907797
2009-09-08 07:18:26 51°20.145 2°51.718 21.6336 0.052807 0.281922 38.907797
2009-09-08 07:18:31 51°20.16 2°51.71 21.6246 0.052807 0.281922 38.907797
2009-09-08 07:18:36 51°20.175 2°51.702 21.6425 0.054968 0.293759 38.907797
2009-09-08 07:18:41 51°20.19 2°51.694 21.637 0.054762 0.292635 38.907797
2009-09-08 07:18:46 51°20.205 2°51.686 21.6195 0.05363 0.286418 38.907797
2009-09-08 07:18:51 51°20.221 2°51.678 21.6281 0.055689 0.297695 38.907797
2009-09-08 07:18:56 51°20.236 2°51.67 21.6414 0.055071 0.294308 38.907797
2009-09-08 07:19:01 51°20.251 2°51.662 21.6331 0.055071 0.294308 38.907797
2009-09-08 07:19:06 51°20.267 2°51.654 21.6323 0.053939 0.288114 38.942621
2009-09-08 07:19:11 51°20.282 2°51.646 21.6409 0.054042 0.288688 38.907797
2009-09-08 07:19:16 51°20.297 2°51.638 21.6515 0.053219 0.284189 38.907797
2009-09-08 07:19:21 51°20.313 2°51.63 21.6336 0.054762 0.29265 38.907797
2009-09-08 07:19:26 51°20.328 2°51.622 21.6457 0.055894 0.298844 38.907797
2009-09-08 07:19:31 51°20.343 2°51.614 21.6457 0.054145 0.289256 38.942621
2009-09-08 07:19:36 51°20.359 2°51.606 21.6222 0.054145 0.289256 38.942621
2009-09-08 07:19:41 51°20.374 2°51.598 21.6478 0.053425 0.285306 38.907797
2009-09-08 07:19:46 51°20.39 2°51.59 21.647 0.054454 0.290933 38.907797
2009-09-08 07:19:51 51°20.405 2°51.582 21.6265 0.054042 0.288683 38.907797
2009-09-08 07:19:56 51°20.421 2°51.574 21.6327 0.054762 0.292665 38.907797
2009-09-08 07:20:01 51°20.436 2°51.566 21.6654 0.05538 0.296077 38.907797
2009-09-08 07:20:06 51°20.451 2°51.558 21.6642 0.05538 0.296077 38.907797
2009-09-08 07:20:11 51°20.467 2°51.55 21.6441 0.055277 0.295528 38.907797
2009-09-08 07:20:16 51°20.482 2°51.542 21.6408 0.054042 0.288712 38.907797
2009-09-08 07:20:21 51°20.498 2°51.534 21.6531 0.054762 0.29265 38.907797
2009-09-08 07:20:26 51°20.513 2°51.527 21.6541 0.054042 0.288668 38.907797
2009-09-08 07:20:31 51°20.529 2°51.519 21.6426 0.054042 0.288668 38.907797
2009-09-08 07:20:36 51°20.544 2°51.511 21.6521 0.053733 0.286962 38.907797
2009-09-08 07:20:41 51°20.559 2°51.503 21.6517 0.054351 0.290334 38.907797
2009-09-08 07:20:46 51°20.575 2°51.494 21.6583 0.053836 0.287506 38.907797
2009-09-08 07:20:51 51°20.59 2°51.486 21.6621 0.052601 0.280753 38.907797
2009-09-08 07:20:56 51°20.606 2°51.479 21.6645 0.054248 0.289781 38.907797
2009-09-08 07:21:01 51°20.621 2°51.471 21.6638 0.054248 0.289781 38.907797
2009-09-08 07:21:06 51°20.637 2°51.463 21.6496 0.054762 0.292625 38.907797
2009-09-08 07:21:11 51°20.652 2°51.456 21.6434 0.05363 0.286467 38.907797
2009-09-08 07:21:16 51°20.668 2°51.448 21.6527 0.054248 0.289885 38.907797
2009-09-08 07:21:21 51°20.683 2°51.44 21.6626 0.053733 0.28709 38.907797
2009-09-08 07:21:26 51°20.699 2°51.432 21.6577 0.054557 0.291627 38.907797
2009-09-08 07:21:31 51°20.714 2°51.424 21.6545 0.054042 0.288811 38.942621
2009-09-08 07:21:36 51°20.73 2°51.416 21.6567 0.054042 0.288811 38.942621
2009-09-08 07:21:41 51°20.745 2°51.408 21.6644 0.053733 0.287144 38.907797
2009-09-08 07:21:46 51°20.76 2°51.4 21.6628 0.054042 0.288851 38.907797
2009-09-08 07:21:51 51°20.776 2°51.392 21.6715 0.053425 0.285423 38.907797
2009-09-08 07:21:56 51°20.792 2°51.385 21.6746 0.053425 0.28537 38.907797
2009-09-08 07:22:01 51°20.807 2°51.377 21.6803 0.053425 0.28537 38.907797
2009-09-08 07:22:06 51°20.823 2°51.369 21.6572 0.055277 0.295487 38.907797
2009-09-08 07:22:11 51°20.838 2°51.361 21.6807 0.053733 0.286987 38.907797
2009-09-08 07:22:16 51°20.853 2°51.353 21.6721 0.054865 0.293225 38.907797
2009-09-08 07:22:21 51°20.869 2°51.345 21.6672 0.054351 0.290429 38.907797
2009-09-08 07:22:26 51°20.884 2°51.337 21.6789 0.053322 0.284801 38.907797
2009-09-08 07:22:31 51°20.9 2°51.329 21.6569 0.053322 0.284801 38.907797
2009-09-08 07:22:36 51°20.916 2°51.321 21.667 0.053733 0.28707 38.907797
2009-09-08 07:22:41 51°20.931 2°51.313 21.6681 0.053939 0.288188 38.907797
2009-09-08 07:22:46 51°20.946 2°51.305 21.6615 0.053733 0.287056 38.907797
2009-09-08 07:22:51 51°20.962 2°51.297 21.6568 0.054968 0.293829 38.872973
2009-09-08 07:22:56 51°20.977 2°51.29 21.6711 0.053836 0.287629 38.907797
2009-09-08 07:23:01 51°20.993 2°51.282 21.6654 0.052807 0.281994 38.907797
2009-09-08 07:23:06 51°21.008 2°51.273 21.6725 0.052807 0.281994 38.907797
2009-09-08 07:23:11 51°21.023 2°51.265 21.6805 0.053219 0.284252 38.872973
2009-09-08 07:23:16 51°21.039 2°51.257 21.6708 0.054865 0.293285 38.872973
2009-09-08 07:23:21 51°21.054 2°51.249 21.6836 0.053013 0.283145 38.907797
2009-09-08 07:23:26 51°21.069 2°51.241 21.6631 0.054248 0.289939 38.907797
2009-09-08 07:23:31 51°21.085 2°51.233 21.6821 0.05291 0.282591 38.872973
2009-09-08 07:23:36 51°21.1 2°51.225 21.6934 0.05291 0.282591 38.872973
2009-09-08 07:23:41 51°21.115 2°51.217 21.6801 0.055586 0.297308 38.907797
2009-09-08 07:23:46 51°21.131 2°51.209 21.7016 0.055174 0.295084 38.907797
2009-09-08 07:23:51 51°21.146 2°51.201 21.7008 0.054351 0.290568 38.907797
2009-09-08 07:23:56 51°21.161 2°51.193 21.699 0.053219 0.284311 38.907797
2009-09-08 07:24:01 51°21.176 2°51.185 21.7016 0.053219 0.284311 38.907797
2009-09-08 07:24:06 51°21.191 2°51.176 21.6927 0.054968 0.293905 38.907797
2009-09-08 07:24:11 51°21.206 2°51.167 21.6873 0.054042 0.288801 38.907797
2009-09-08 07:24:16 51°21.222 2°51.159 21.6906 0.055174 0.294988 38.907797
2009-09-08 07:24:21 51°21.237 2°51.15 21.6823 0.054351 0.290449 38.907797
2009-09-08 07:24:26 51°21.252 2°51.142 21.6795 0.053836 0.287614 38.907797
2009-09-08 07:24:31 51°21.267 2°51.134 21.6967 0.053939 0.288183 38.907797
2009-09-08 07:24:36 51°21.282 2°51.126 21.6852 0.053939 0.288183 38.907797
2009-09-08 07:24:41 51°21.298 2°51.118 21.6984 0.054659 0.292141 38.907797
2009-09-08 07:24:46 51°21.313 2°51.111 21.6739 0.054762 0.292715 38.872973
2009-09-08 07:24:51 51°21.328 2°51.103 21.6819 0.055071 0.294419 38.907797
2009-09-08 07:24:56 51°21.344 2°51.094 21.6907 0.053836 0.287673 38.907797
2009-09-08 07:25:01 51°21.359 2°51.086 21.7058 0.053425 0.285428 38.907797
2009-09-08 07:25:06 51°21.374 2°51.078 21.6949 0.053425 0.285428 38.907797
2009-09-08 07:25:11 51°21.389 2°51.071 21.7043 0.054351 0.290533 38.872973
2009-09-08 07:25:16 51°21.404 2°51.063 21.7186 0.054762 0.292821 38.907797
2009-09-08 07:25:21 51°21.42 2°51.055 21.7072 0.053836 0.287747 38.907797
2009-09-08 07:25:26 51°21.435 2°51.046 21.7161 0.054145 0.289464 38.907797
2009-09-08 07:25:31 51°21.45 2°51.038 21.719 0.056203 0.300781 38.907797
2009-09-08 07:25:36 51°21.465 2°51.03 21.7093 0.056203 0.300781 38.907797
2009-09-08 07:25:41 51°21.48 2°51.022 21.7163 0.053836 0.287796 38.907797
2009-09-08 07:25:46 51°21.495 2°51.014 21.7127 0.053527 0.286065 38.907797
2009-09-08 07:25:51 51°21.51 2°51.006 21.7054 0.053836 0.287713 38.872973
2009-09-08 07:25:56 51°21.525 2°50.997 21.6969 0.055174 0.295024 38.907797
2009-09-08 07:26:01 51°21.54 2°50.99 21.7227 0.055174 0.295024 38.907797
2009-09-08 07:26:06 51°21.555 2°50.982 21.7039 0.057644 0.308618 38.872973
2009-09-08 07:26:11 51°21.57 2°50.974 21.6948 0.053836 0.287747 38.907797
2009-09-08 07:26:16 51°21.586 2°50.966 21.7031 0.056821 0.304107 38.872973
2009-09-08 07:26:21 51°21.601 2°50.959 21.7291 0.055483 0.296738 38.907797
2009-09-08 07:26:26 51°21.616 2°50.951 21.7298 0.053836 0.287678 38.872973
2009-09-08 07:26:31 51°21.631 2°50.943 21.7104 0.054968 0.293859 38.907797
2009-09-08 07:26:36 51°21.646 2°50.935 21.7221 0.054968 0.293859 38.907797
2009-09-08 07:26:41 51°21.661 2°50.928 21.7121 0.054865 0.293295 38.907797
2009-09-08 07:26:46 51°21.677 2°50.92 21.7208 0.055586 0.297237 38.907797
2009-09-08 07:26:51 51°21.692 2°50.913 21.7159 0.05538 0.296082 38.872973
2009-09-08 07:26:56 51°21.707 2°50.905 21.7046 0.054248 0.28984 38.907797
2009-09-08 07:27:01 51°21.722 2°50.897 21.7324 0.0561 0.3 38.872973
2009-09-08 07:27:06 51°21.737 2°50.889 21.7299 0.0561 0.3 38.872973
2009-09-08 07:27:11 51°21.753 2°50.881 21.7264 0.054557 0.291557 38.907797
2009-09-08 07:27:16 51°21.768 2°50.874 21.7274 0.053116 0.283703 38.907797
2009-09-08 07:27:21 51°21.783 2°50.866 21.726 0.054248 0.289929 38.907797
2009-09-08 07:27:26 51°21.798 2°50.858 21.7405 0.053939 0.288252 38.872973
2009-09-08 07:27:31 51°21.814 2°50.85 21.7342 0.053939 0.288252 38.872973
2009-09-08 07:27:36 51°21.829 2°50.843 21.7465 0.056821 0.304102 38.872973
2009-09-08 07:27:41 51°21.845 2°50.835 21.7095 0.054762 0.292851 38.872973
2009-09-08 07:27:46 51°21.86 2°50.827 21.7304 0.054145 0.289489 38.872973
2009-09-08 07:27:50 51°21.872 2°50.821 21.7382 0.054762 0.292926 38.872973
2009-09-08 07:27:56 51°21.89 2°50.811 21.7248 0.054454 0.291287 38.872973
2009-09-08 07:28:01 51°21.906 2°50.804 21.7401 0.054454 0.291287 38.872973
2009-09-08 07:28:06 51°21.921 2°50.796 21.734 0.05538 0.296427 38.872973
2009-09-08 07:28:10 51°21.933 2°50.79 21.7343 0.054145 0.289673 38.872973
2009-09-08 07:28:16 51°21.952 2°50.781 21.7286 0.053836 0.287999 38.872973
2009-09-08 07:28:21 51°21.967 2°50.774 21.7409 0.053939 0.288578 38.872973
2009-09-08 07:28:26 51°21.982 2°50.766 21.7421 0.054865 0.293682 38.907797
2009-09-08 07:28:31 51°21.998 2°50.759 21.7391 0.054145 0.289732 38.872973
2009-09-08 07:28:36 51°22.013 2°50.751 21.7416 0.054145 0.289732 38.872973
2009-09-08 07:28:41 51°22.029 2°50.744 21.7352 0.054557 0.291982 38.872973
2009-09-08 07:28:46 51°22.044 2°50.736 21.7396 0.054557 0.291977 38.872973
2009-09-08 07:28:51 51°22.059 2°50.728 21.752 0.054042 0.289153 38.872973
2009-09-08 07:28:56 51°22.075 2°50.72 21.7356 0.054968 0.294232 38.872973
2009-09-08 07:29:01 51°22.09 2°50.713 21.7618 0.056718 0.30388 38.872973
2009-09-08 07:29:06 51°22.105 2°50.705 21.77 0.056718 0.30388 38.872973
2009-09-08 07:29:11 51°22.121 2°50.698 21.7524 0.055791 0.298792 38.907797
2009-09-08 07:29:16 51°22.136 2°50.69 21.7613 0.055791 0.298766 38.872973
2009-09-08 07:29:21 51°22.151 2°50.682 21.7638 0.054865 0.293667 38.907797
2009-09-08 07:29:26 51°22.167 2°50.674 21.7498 0.0561 0.300448 38.872973
2009-09-08 07:29:31 51°22.182 2°50.667 21.7402 0.0561 0.300448 38.872973
2009-09-08 07:29:36 51°22.197 2°50.659 21.7528 0.055689 0.298221 38.872973
2009-09-08 07:29:41 51°22.213 2°50.652 21.7548 0.055071 0.294787 38.872973
2009-09-08 07:29:46 51°22.228 2°50.644 21.7541 0.054762 0.293072 38.872973
2009-09-08 07:29:51 51°22.244 2°50.637 21.7679 0.055071 0.294722 38.872973
2009-09-08 07:29:56 51°22.259 2°50.629 21.7558 0.055586 0.297512 38.872973
2009-09-08 07:30:01 51°22.274 2°50.622 21.7403 0.053527 0.286178 38.907797
2009-09-08 07:30:06 51°22.29 2°50.614 21.7423 0.053527 0.286178 38.907797
2009-09-08 07:30:11 51°22.305 2°50.606 21.7615 0.054351 0.290692 38.872973
2009-09-08 07:30:16 51°22.32 2°50.598 21.758 0.055071 0.294691 38.872973
2009-09-08 07:30:21 51°22.336 2°50.59 21.7572 0.055071 0.294742 38.872973
2009-09-08 07:30:26 51°22.351 2°50.583 21.7572 0.055586 0.297635 38.872973
2009-09-08 07:30:31 51°22.366 2°50.575 21.7771 0.0561 0.300551 38.872973
2009-09-08 07:30:36 51°22.382 2°50.569 21.7784 0.0561 0.300551 38.872973
2009-09-08 07:30:41 51°22.397 2°50.56 21.7649 0.055174 0.295479 38.872973
2009-09-08 07:30:46 51°22.412 2°50.552 21.7689 0.054351 0.290937 38.872973
2009-09-08 07:30:51 51°22.428 2°50.544 21.7673 0.054865 0.293798 38.907797
2009-09-08 07:30:56 51°22.443 2°50.537 21.77 0.054248 0.290382 38.872973
2009-09-08 07:31:01 51°22.458 2°50.529 21.7518 0.054248 0.290382 38.872973
2009-09-08 07:31:06 51°22.473 2°50.521 21.7866 0.055174 0.295464 38.872973
2009-09-08 07:31:11 51°22.489 2°50.514 21.7791 0.055174 0.295444 38.872973
2009-09-08 07:31:16 51°22.504 2°50.506 21.7603 0.055483 0.297135 38.907797
2009-09-08 07:31:21 51°22.519 2°50.498 21.7565 0.054968 0.294323 38.872973
2009-09-08 07:31:26 51°22.535 2°50.491 21.7622 0.055277 0.296025 38.872973
2009-09-08 07:31:31 51°22.55 2°50.482 21.7968 0.055277 0.296025 38.872973
2009-09-08 07:31:36 51°22.565 2°50.475 21.7937 0.06104 0.327891 38.872973
2009-09-08 07:31:41 51°22.581 2°50.467 21.7785 0.055997 0.300114 38.872973
2009-09-08 07:31:46 51°22.596 2°50.457 21.7562 0.058055 0.311519 38.872973
2009-09-08 07:31:51 51°22.611 2°50.448 21.7907 0.05538 0.296753 38.872973
2009-09-08 07:31:56 51°22.626 2°50.438 21.7479 0.056203 0.301293 38.872973
2009-09-08 07:32:01 51°22.64 2°50.429 21.7964 0.055483 0.297278 38.872973
2009-09-08 07:32:06 51°22.655 2°50.419 21.7711 0.055483 0.297278 38.872973
2009-09-08 07:32:11 51°22.67 2°50.409 21.7919 0.055483 0.297212 38.872973
2009-09-08 07:32:16 51°22.685 2°50.399 21.7756 0.055483 0.297161 38.872973
2009-09-08 07:32:21 51°22.7 2°50.389 21.7782 0.05538 0.296575 38.872973
2009-09-08 07:32:26 51°22.715 2°50.379 21.7787 0.055277 0.295969 38.872973
2009-09-08 07:32:31 51°22.729 2°50.368 21.7893 0.055483 0.297095 38.872973
2009-09-08 07:32:36 51°22.744 2°50.358 21.7756 0.055483 0.297095 38.872973
2009-09-08 07:32:41 51°22.759 2°50.348 21.7681 0.055174 0.295424 38.872973
2009-09-08 07:32:46 51°22.774 2°50.337 21.7711 0.056409 0.302229 38.872973
2009-09-08 07:32:51 51°22.788 2°50.327 21.8034 0.056615 0.303413 38.872973
2009-09-08 07:32:56 51°22.803 2°50.316 21.7761 0.055894 0.299455 38.872973
2009-09-08 07:33:01 51°22.818 2°50.306 21.7915 0.054557 0.292107 38.872973
2009-09-08 07:33:06 51°22.833 2°50.296 21.7962 0.054557 0.292107 38.872973
2009-09-08 07:33:11 51°22.848 2°50.286 21.8 0.057541 0.308582 38.872973
2009-09-08 07:33:16 51°22.862 2°50.276 21.7618 0.055791 0.298987 38.872973
2009-09-08 07:33:21 51°22.877 2°50.265 21.7842 0.056409 0.302364 38.872973
2009-09-08 07:33:26 51°22.892 2°50.255 21.7777 0.059702 0.32054 38.872973
2009-09-08 07:33:31 51°22.906 2°50.245 21.8042 0.056615 0.303549 38.872973
2009-09-08 07:33:36 51°22.921 2°50.235 21.797 0.056615 0.303549 38.872973
2009-09-08 07:33:41 51°22.936 2°50.224 21.7778 0.057232 0.306929 38.872973
2009-09-08 07:33:46 51°22.951 2°50.214 21.804 0.054968 0.294439 38.872973
2009-09-08 07:33:51 51°22.965 2°50.203 21.7909 0.054557 0.292152 38.838149
2009-09-08 07:33:56 51°22.98 2°50.192 21.7955 0.055894 0.299527 38.872973
2009-09-08 07:34:01 51°22.995 2°50.182 21.7997 0.056821 0.304635 38.872973
2009-09-08 07:34:06 51°23.01 2°50.172 21.8075 0.056821 0.304635 38.872973
2009-09-08 07:34:11 51°23.025 2°50.162 21.7894 0.054865 0.293848 38.872973
2009-09-08 07:34:16 51°23.04 2°50.152 21.812 0.056306 0.301782 38.872973
2009-09-08 07:34:21 51°23.054 2°50.142 21.8056 0.0561 0.300644 38.872973
2009-09-08 07:34:26 51°23.069 2°50.132 21.8088 0.054659 0.292722 38.872973
2009-09-08 07:34:31 51°23.084 2°50.122 21.8213 0.056409 0.302358 38.872973
2009-09-08 07:34:36 51°23.099 2°50.112 21.8078 0.056409 0.302358 38.872973
2009-09-08 07:34:41 51°23.113 2°50.102 21.806 0.056409 0.302384 38.872973
2009-09-08 07:34:46 51°23.128 2°50.091 21.809 0.056409 0.302442 38.872973
2009-09-08 07:34:51 51°23.143 2°50.082 21.8271 0.056615 0.303601 38.872973
2009-09-08 07:34:56 51°23.158 2°50.072 21.8121 0.05538 0.296809 38.872973
2009-09-08 07:35:01 51°23.173 2°50.062 21.8181 0.05538 0.296809 38.872973
2009-09-08 07:35:06 51°23.188 2°50.052 21.8235 0.056512 0.303034 38.872973
2009-09-08 07:35:11 51°23.203 2°50.042 21.808 0.057644 0.309255 38.872973
2009-09-08 07:35:16 51°23.218 2°50.033 21.8244 0.055997 0.300176 38.872973
2009-09-08 07:35:21 51°23.232 2°50.022 21.811 0.056821 0.304672 38.872973
2009-09-08 07:35:26 51°23.247 2°50.012 21.8096 0.056512 0.302946 38.872973
2009-09-08 07:35:31 51°23.262 2°50.003 21.811 0.056923 0.305218 38.872973
2009-09-08 07:35:36 51°23.277 2°49.993 21.8193 0.056923 0.305218 38.872973
2009-09-08 07:35:41 51°23.292 2°49.983 21.8098 0.057335 0.307469 38.872973
2009-09-08 07:35:46 51°23.307 2°49.972 21.825 0.057026 0.305805 38.872973
2009-09-08 07:35:51 51°23.322 2°49.962 21.8191 0.056923 0.305249 38.872973
2009-09-08 07:35:56 51°23.336 2°49.952 21.8217 0.055894 0.299573 38.872973
2009-09-08 07:36:01 51°23.351 2°49.941 21.822 0.054351 0.291086 38.872973
2009-09-08 07:36:06 51°23.366 2°49.931 21.8122 0.054351 0.291086 38.872973
2009-09-08 07:36:11 51°23.38 2°49.921 21.8274 0.056203 0.301288 38.872973
2009-09-08 07:36:16 51°23.395 2°49.911 21.8362 0.05538 0.296768 38.872973
2009-09-08 07:36:21 51°23.41 2°49.901 21.8393 0.055997 0.300191 38.872973
2009-09-08 07:36:26 51°23.425 2°49.892 21.8332 0.054454 0.291682 38.872973
2009-09-08 07:36:31 51°23.44 2°49.881 21.8124 0.054454 0.291682 38.872973
2009-09-08 07:36:36 51°23.455 2°49.872 21.8268 0.055483 0.29735 38.872973
2009-09-08 07:36:41 51°23.47 2°49.862 21.8361 0.054968 0.29452 38.872973
2009-09-08 07:36:46 51°23.485 2°49.852 21.8121 0.056409 0.302468 38.872973
2009-09-08 07:36:51 51°23.5 2°49.842 21.8432 0.055894 0.299625 38.872973
2009-09-08 07:36:56 51°23.515 2°49.832 21.8447 0.056306 0.301906 38.872973
2009-09-08 07:37:01 51°23.529 2°49.822 21.8461 0.056306 0.301906 38.872973
2009-09-08 07:37:06 51°23.544 2°49.812 21.829 0.055791 0.299064 38.872973
2009-09-08 07:37:11 51°23.559 2°49.802 21.8499 0.054659 0.292798 38.872973
2009-09-08 07:37:16 51°23.574 2°49.792 21.8346 0.056615 0.303538 38.872973
2009-09-08 07:37:21 51°23.589 2°49.782 21.8354 0.0561 0.300711 38.872973
2009-09-08 07:37:26 51°23.604 2°49.772 21.8298 0.055894 0.299563 38.872973
2009-09-08 07:37:31 51°23.619 2°49.762 21.8477 0.057129 0.306383 38.872973
2009-09-08 07:37:36 51°23.634 2°49.752 21.8351 0.057129 0.306383 38.872973
2009-09-08 07:37:41 51°23.649 2°49.742 21.8362 0.055483 0.29734 38.872973
2009-09-08 07:37:46 51°23.664 2°49.732 21.8278 0.054659 0.292803 38.872973
2009-09-08 07:37:51 51°23.678 2°49.722 21.843 0.057232 0.306997 38.872973
2009-09-08 07:37:56 51°23.693 2°49.712 21.8506 0.056203 0.301314 38.872973
2009-09-08 07:38:01 51°23.708 2°49.702 21.8483 0.0561 0.300742 38.872973
2009-09-08 07:38:06 51°23.723 2°49.692 21.8623 0.0561 0.300742 38.872973
2009-09-08 07:38:11 51°23.738 2°49.682 21.8473 0.056821 0.304708 38.872973
2009-09-08 07:38:16 51°23.753 2°49.672 21.8534 0.055174 0.295647 38.872973
2009-09-08 07:38:21 51°23.767 2°49.662 21.8455 0.055174 0.295682 38.872973
2009-09-08 07:38:26 51°23.782 2°49.652 21.8577 0.055483 0.297381 38.872973
2009-09-08 07:38:31 51°23.797 2°49.642 21.8589 0.055483 0.297381 38.872973
2009-09-08 07:38:36 51°23.812 2°49.632 21.8682 0.056306 0.301922 38.872973
2009-09-08 07:38:41 51°23.827 2°49.621 21.8647 0.056615 0.303627 38.872973
2009-09-08 07:38:46 51°23.841 2°49.611 21.8636 0.055277 0.296253 38.872973
2009-09-08 07:38:50 51°23.853 2°49.603 21.8606 0.05538 0.296809 38.872973
2009-09-08 07:38:56 51°23.871 2°49.591 21.8776 0.056203 0.30135 38.838149
2009-09-08 07:39:01 51°23.886 2°49.581 21.8721 0.056306 0.301937 38.872973
2009-09-08 07:39:06 51°23.901 2°49.571 21.8676 0.056306 0.301937 38.872973
2009-09-08 07:39:10 51°23.913 2°49.563 21.874 0.055894 0.299682 38.872973
2009-09-08 07:39:16 51°23.931 2°49.551 21.8655 0.056203 0.301417 38.872973
2009-09-08 07:39:21 51°23.946 2°49.54 21.8638 0.056821 0.304829 38.838149
2009-09-08 07:39:26 51°23.96 2°49.53 21.8401 0.057129 0.306525 38.872973
2009-09-08 07:39:31 51°23.975 2°49.52 21.8788 0.057129 0.30653 38.838149
2009-09-08 07:39:36 51°23.99 2°49.509 21.8799 0.057129 0.30653 38.838149
2009-09-08 07:39:41 51°24.004 2°49.499 21.8759 0.056409 0.302567 38.872973
2009-09-08 07:39:46 51°24.019 2°49.489 21.8772 0.05538 0.296891 38.872973
2009-09-08 07:39:51 51°24.034 2°49.479 21.8543 0.054968 0.294571 38.872973
2009-09-08 07:39:56 51°24.049 2°49.468 21.8859 0.056718 0.304152 38.872973
2009-09-08 07:40:01 51°24.063 2°49.458 21.8817 0.055689 0.298446 38.872973
2009-09-08 07:40:06 51°24.078 2°49.448 21.8777 0.055689 0.298446 38.872973
2009-09-08 07:40:11 51°24.093 2°49.438 21.8749 0.056409 0.3024 38.872973
2009-09-08 07:40:16 51°24.108 2°49.427 21.8756 0.054659 0.292753 38.872973
2009-09-08 07:40:21 51°24.122 2°49.417 21.8939 0.055791 0.298982 38.872973
2009-09-08 07:40:26 51°24.137 2°49.407 21.8937 0.057747 0.309828 38.872973
2009-09-08 07:40:31 51°24.152 2°49.397 21.8869 0.056821 0.304766 38.872973
2009-09-08 07:40:36 51°24.167 2°49.386 21.8751 0.056821 0.304766 38.872973
2009-09-08 07:40:41 51°24.181 2°49.375 21.8655 0.055483 0.297406 38.838149
2009-09-08 07:40:46 51°24.196 2°49.365 21.8815 0.055997 0.300243 38.872973
2009-09-08 07:40:51 51°24.21 2°49.354 21.8814 0.056615 0.303638 38.872973
2009-09-08 07:40:56 51°24.225 2°49.344 21.8837 0.059085 0.317301 38.872973
2009-09-08 07:41:01 51°24.24 2°49.334 21.8816 0.056409 0.302541 38.838149
2009-09-08 07:41:06 51°24.255 2°49.323 21.8861 0.056409 0.302541 38.838149
2009-09-08 07:41:11 51°24.269 2°49.313 21.8914 0.0561 0.300851 38.872973
2009-09-08 07:41:16 51°24.284 2°49.302 21.8765 0.058467 0.31392 38.872973
2009-09-08 07:41:21 51°24.299 2°49.292 21.8776 0.05538 0.296916 38.872973
2009-09-08 07:41:26 51°24.313 2°49.281 21.8649 0.054145 0.29012 38.872973
2009-09-08 07:41:31 51°24.328 2°49.27 21.9014 0.058261 0.312811 38.838149
2009-09-08 07:41:36 51°24.343 2°49.26 21.8806 0.058261 0.312811 38.838149
2009-09-08 07:41:41 51°24.358 2°49.25 21.8871 0.054865 0.294116 38.872973
2009-09-08 07:41:46 51°24.372 2°49.239 21.8907 0.057335 0.307744 38.872973
2009-09-08 07:41:51 51°24.387 2°49.229 21.8765 0.055997 0.300377 38.872973
2009-09-08 07:41:56 51°24.401 2°49.218 21.9008 0.057438 0.308333 38.872973
2009-09-08 07:42:01 51°24.416 2°49.208 21.9109 0.059908 0.322004 38.872973
2009-09-08 07:42:06 51°24.431 2°49.197 21.9033 0.059908 0.322004 38.872973
2009-09-08 07:42:11 51°24.446 2°49.187 21.876 0.056718 0.304388 38.872973
2009-09-08 07:42:16 51°24.46 2°49.177 21.9019 0.05538 0.296962 38.872973
2009-09-08 07:42:21 51°24.475 2°49.166 21.9083 0.056923 0.305486 38.872973
2009-09-08 07:42:26 51°24.49 2°49.156 21.8931 0.054248 0.290711 38.872973
2009-09-08 07:42:31 51°24.504 2°49.146 21.8988 0.055586 0.29808 38.872973
2009-09-08 07:42:36 51°24.519 2°49.136 21.9211 0.055586 0.29808 38.872973
2009-09-08 07:42:41 51°24.534 2°49.125 21.9146 0.058673 0.315126 38.872973
2009-09-08 07:42:46 51°24.549 2°49.115 21.9164 0.056821 0.304913 38.872973
2009-09-08 07:42:51 51°24.563 2°49.104 21.914 0.054968 0.294672 38.872973
2009-09-08 07:42:56 51°24.578 2°49.095 21.906 0.055277 0.296391 38.872973
2009-09-08 07:43:01 51°24.593 2°49.084 21.9197 0.057747 0.310015 38.872973
2009-09-08 07:43:06 51°24.608 2°49.074 21.9174 0.057747 0.310015 38.872973
2009-09-08 07:43:11 51°24.623 2°49.064 21.8953 0.057541 0.308885 38.872973
2009-09-08 07:43:16 51°24.637 2°49.053 21.9084 0.05538 0.296957 38.872973
2009-09-08 07:43:21 51°24.652 2°49.043 21.8937 0.056615 0.303774 38.872973
2009-09-08 07:43:26 51°24.667 2°49.033 21.9229 0.058056 0.311724 38.872973
2009-09-08 07:43:31 51°24.681 2°49.023 21.8985 0.057129 0.306652 38.872973
2009-09-08 07:43:36 51°24.696 2°49.013 21.9195 0.057129 0.306652 38.872973
2009-09-08 07:43:41 51°24.711 2°49.002 21.9015 0.056203 0.301568 38.872973
2009-09-08 07:43:46 51°24.726 2°48.992 21.9242 0.053939 0.289059 38.872973
2009-09-08 07:43:51 51°24.741 2°48.981 21.9104 0.058982 0.316864 38.872973
2009-09-08 07:43:56 51°24.756 2°48.971 21.8846 0.055174 0.29584 38.872973
2009-09-08 07:44:01 51°24.77 2°48.96 21.9218 0.055174 0.29584 38.872973
2009-09-08 07:44:06 51°24.784 2°48.951 21.9117 0.058467 0.313958 38.872973
2009-09-08 07:44:11 51°24.798 2°48.941 21.9355 0.05538 0.296952 38.872973
2009-09-08 07:44:16 51°24.81 2°48.932 21.9327 0.058982 0.316869 38.872973
2009-09-08 07:44:21 51°24.822 2°48.924 21.9259 0.059702 0.320844 38.872973
2009-09-08 07:44:26 51°24.834 2°48.915 21.937 0.057541 0.308896 38.872973
2009-09-08 07:44:31 51°24.846 2°48.906 21.9329 0.05857 0.314596 38.872973
2009-09-08 07:44:36 51°24.857 2°48.897 21.9358 0.05857 0.314596 38.872973
2009-09-08 07:44:41 51°24.867 2°48.889 21.9345 0.059805 0.321441 38.872973
2009-09-08 07:44:46 51°24.878 2°48.88 21.945 0.061246 0.329439 38.872973
2009-09-08 07:44:51 51°24.888 2°48.873 21.9209 0.059496 0.319756 38.872973
2009-09-08 07:44:56 51°24.899 2°48.864 21.9359 0.061349 0.330003 38.872973
2009-09-08 07:45:01 51°24.909 2°48.857 21.9567 0.062378 0.335714 38.872973
2009-09-08 07:45:06 51°24.919 2°48.849 21.93 0.062378 0.335714 38.872973
2009-09-08 07:45:11 51°24.929 2°48.841 21.9333 0.059496 0.319773 38.872973
2009-09-08 07:45:16 51°24.94 2°48.834 21.9537 0.05857 0.314683 38.872973
2009-09-08 07:45:21 51°24.95 2°48.828 21.957 0.060834 0.327245 38.872973
2009-09-08 07:45:26 51°24.96 2°48.821 21.9307 0.06032 0.324409 38.872973
2009-09-08 07:45:31 51°24.97 2°48.815 21.9381 0.061863 0.332933 38.872973
2009-09-08 07:45:36 51°24.98 2°48.808 21.9446 0.061863 0.332933 38.872973
2009-09-08 07:45:41 51°24.99 2°48.802 21.9491 0.062584 0.336925 38.838149
2009-09-08 07:45:46 51°25 2°48.796 21.9577 0.064642 0.348345 38.872973
2009-09-08 07:45:51 51°25.01 2°48.79 21.9379 0.062481 0.336354 38.872973
2009-09-08 07:45:56 51°25.02 2°48.785 21.9554 0.063407 0.341502 38.838149
2009-09-08 07:46:01 51°25.03 2°48.779 21.9529 0.063304 0.340919 38.872973
2009-09-08 07:46:06 51°25.04 2°48.774 21.9589 0.063304 0.340919 38.872973
2009-09-08 07:46:11 51°25.05 2°48.768 21.9575 0.06351 0.342061 38.872973
2009-09-08 07:46:16 51°25.06 2°48.763 21.9413 0.064436 0.347214 38.872973
2009-09-08 07:46:21 51°25.07 2°48.758 21.9283 0.066288 0.357526 38.872973
2009-09-08 07:46:26 51°25.08 2°48.753 21.9487 0.063304 0.340984 38.872973
2009-09-08 07:46:31 51°25.09 2°48.748 21.9313 0.062584 0.336983 38.872973
2009-09-08 07:46:36 51°25.1 2°48.743 21.9502 0.062584 0.336983 38.872973
2009-09-08 07:46:41 51°25.11 2°48.739 21.9625 0.059702 0.320999 38.872973
2009-09-08 07:46:46 51°25.118 2°48.735 21.9674 0.059599 0.320425 38.872973
2009-09-08 07:46:51 51°25.126 2°48.73 21.9734 0.059496 0.319867 38.872973
2009-09-08 07:46:56 51°25.134 2°48.727 21.9654 0.060422 0.324995 38.872973
2009-09-08 07:47:01 51°25.142 2°48.723 21.9667 0.062892 0.338695 38.872973
2009-09-08 07:47:06 51°25.149 2°48.719 21.9649 0.062892 0.338695 38.872973
2009-09-08 07:47:11 51°25.155 2°48.716 21.9749 0.062378 0.335836 38.872973
2009-09-08 07:47:16 51°25.162 2°48.713 21.9657 0.06423 0.346113 38.872973
2009-09-08 07:47:21 51°25.169 2°48.711 21.9698 0.063304 0.340984 38.838149
2009-09-08 07:47:26 51°25.175 2°48.708 21.9725 0.063716 0.343263 38.872973
2009-09-08 07:47:31 51°25.181 2°48.706 21.9739 0.063716 0.343263 38.872973
2009-09-08 07:47:36 51°25.188 2°48.703 21.9673 0.063613 0.342686 38.872973
2009-09-08 07:47:41 51°25.194 2°48.702 21.9648 0.059702 0.32101 38.872973
2009-09-08 07:47:46 51°25.2 2°48.7 21.9511 0.058673 0.3153 38.872973
2009-09-08 07:47:51 51°25.205 2°48.699 21.9445 0.058879 0.316432 38.872973
2009-09-08 07:47:56 51°25.211 2°48.698 21.9312 0.058673 0.3153 38.838149
2009-09-08 07:48:01 51°25.216 2°48.699 21.9265 0.057953 0.311327 38.872973
2009-09-08 07:48:06 51°25.221 2°48.7 21.9234 0.057953 0.311327 38.872973
2009-09-08 07:48:11 51°25.225 2°48.701 21.9304 0.057335 0.30793 38.872973
2009-09-08 07:48:16 51°25.229 2°48.703 21.93 0.056821 0.305108 38.872973
2009-09-08 07:48:21 51°25.233 2°48.705 21.9332 0.057026 0.306253 38.872973
2009-09-08 07:48:26 51°25.236 2°48.708 21.9415 0.056924 0.30568 38.872973
2009-09-08 07:48:31 51°25.239 2°48.711 21.924 0.05538 0.297167 38.838149
2009-09-08 07:48:36 51°25.241 2°48.714 21.9268 0.05538 0.297167 38.838149
2009-09-08 07:48:41 51°25.244 2°48.718 21.9375 0.05538 0.297157 38.838149
2009-09-08 07:48:46 51°25.245 2°48.722 21.9356 0.054557 0.292594 38.872973
2009-09-08 07:48:51 51°25.247 2°48.725 21.9522 0.054865 0.294283 38.872973
2009-09-08 07:48:56 51°25.248 2°48.729 21.9583 0.054865 0.294268 38.838149
2009-09-08 07:49:01 51°25.248 2°48.733 21.964 0.054865 0.294268 38.838149
2009-09-08 07:49:06 51°25.248 2°48.737 21.9714 0.056615 0.30392 38.838149
2009-09-08 07:49:11 51°25.248 2°48.741 21.9627 0.056306 0.302213 38.838149
2009-09-08 07:49:16 51°25.248 2°48.745 21.9574 0.055894 0.29994 38.838149
2009-09-08 07:49:21 51°25.247 2°48.749 21.9365 0.054659 0.293135 38.872973
2009-09-08 07:49:26 51°25.245 2°48.753 21.9458 0.054762 0.293691 38.872973
2009-09-08 07:49:31 51°25.244 2°48.756 21.9379 0.053322 0.285759 38.838149
2009-09-08 07:49:36 51°25.242 2°48.76 21.9637 0.053322 0.285759 38.838149
2009-09-08 07:49:41 51°25.24 2°48.763 21.9721 0.053322 0.285754 38.838149
2009-09-08 07:49:46 51°25.237 2°48.766 21.9657 0.052807 0.282937 38.872973
2009-09-08 07:49:51 51°25.235 2°48.769 21.9817 0.053013 0.284053 38.838149
2009-09-08 07:49:56 51°25.231 2°48.771 21.9819 0.054454 0.291978 38.872973
2009-09-08 07:50:01 51°25.228 2°48.773 21.968 0.054557 0.292549 38.872973
2009-09-08 07:50:06 51°25.224 2°48.774 21.9918 0.054557 0.292549 38.872973
2009-09-08 07:50:11 51°25.221 2°48.775 22.0061 0.057747 0.310154 38.838149
2009-09-08 07:50:16 51°25.216 2°48.776 22.0146 0.059702 0.321021 38.838149
2009-09-08 07:50:21 51°25.212 2°48.776 22.0117 0.063201 0.340467 38.838149
2009-09-08 07:50:26 51°25.208 2°48.776 22.0078 0.066288 0.35765 38.872973
2009-09-08 07:50:31 51°25.203 2°48.776 22.0049 0.065362 0.35253 38.838149
2009-09-08 07:50:36 51°25.199 2°48.776 22.0294 0.065362 0.35253 38.838149
2009-09-08 07:50:41 51°25.194 2°48.774 21.9792 0.062892 0.338795 38.872973
2009-09-08 07:50:46 51°25.189 2°48.773 21.9639 0.05785 0.31084 38.838149
2009-09-08 07:50:51 51°25.184 2°48.771 21.9672 0.058982 0.317061 38.838149
2009-09-08 07:50:56 51°25.18 2°48.769 21.9886 0.060937 0.327883 38.838149
2009-09-08 07:51:01 51°25.175 2°48.765 22.0138 0.060937 0.327883 38.838149
2009-09-08 07:51:06 51°25.171 2°48.762 22.0197 0.062069 0.334177 38.838149
2009-09-08 07:51:11 51°25.166 2°48.758 22.0198 0.063613 0.342769 38.838149
2009-09-08 07:51:16 51°25.162 2°48.754 22.0224 0.06423 0.346233 38.838149
2009-09-08 07:51:21 51°25.158 2°48.749 22.0213 0.063716 0.34337 38.838149
2009-09-08 07:51:26 51°25.154 2°48.744 22.0172 0.065465 0.353096 38.838149
2009-09-08 07:51:31 51°25.149 2°48.738 22.0316 0.063921 0.344537 38.872973
2009-09-08 07:51:36 51°25.145 2°48.732 22.0394 0.063921 0.344537 38.872973
2009-09-08 07:51:41 51°25.141 2°48.726 22.0372 0.067523 0.364613 38.838149
2009-09-08 07:51:46 51°25.138 2°48.72 22.0384 0.067626 0.365244 38.838149
2009-09-08 07:51:51 51°25.134 2°48.713 22.0301 0.066391 0.358347 38.838149
2009-09-08 07:51:56 51°25.13 2°48.707 22.0227 0.065877 0.355453 38.838149
2009-09-08 07:52:01 51°25.126 2°48.7 22.0295 0.063921 0.344542 38.838149
2009-09-08 07:52:06 51°25.122 2°48.692 22.0329 0.063921 0.344542 38.838149
2009-09-08 07:52:10 51°25.12 2°48.686 22.0272 0.06495 0.350236 38.838149
2009-09-08 07:52:16 51°25.116 2°48.676 22.0183 0.063613 0.342787 38.872973
2009-09-08 07:52:21 51°25.113 2°48.668 22.0161 0.065877 0.355373 38.872973
2009-09-08 07:52:26 51°25.11 2°48.659 22.0347 0.06351 0.342221 38.838149
2009-09-08 07:52:31 51°25.107 2°48.65 22.0335 0.063818 0.343941 38.872973
2009-09-08 07:52:36 51°25.104 2°48.64 22.0237 0.063818 0.343941 38.872973
2009-09-08 07:52:41 51°25.102 2°48.63 22.0198 0.062789 0.338236 38.838149
2009-09-08 07:52:46 51°25.1 2°48.621 22.0261 0.062172 0.334806 38.838149
2009-09-08 07:52:51 51°25.098 2°48.611 22.0305 0.06423 0.346239 38.838149
2009-09-08 07:52:56 51°25.096 2°48.602 22.0302 0.062892 0.33883 38.872973
2009-09-08 07:53:01 51°25.095 2°48.592 22.0267 0.062892 0.33883 38.872973
2009-09-08 07:53:06 51°25.094 2°48.582 22.0147 0.062481 0.336552 38.872973
2009-09-08 07:53:11 51°25.093 2°48.573 22.0332 0.065259 0.351988 38.838149
2009-09-08 07:53:16 51°25.092 2°48.564 22.0426 0.068449 0.369781 38.838149
2009-09-08 07:53:21 51°25.091 2°48.555 22.0269 0.068244 0.36864 38.838149
2009-09-08 07:53:26 51°25.091 2°48.546 22.0246 0.063921 0.34456 38.872973
2009-09-08 07:53:31 51°25.091 2°48.537 22.022 0.063818 0.343965 38.838149
2009-09-08 07:53:36 51°25.091 2°48.528 22.0385 0.063818 0.343965 38.838149
2009-09-08 07:53:41 51°25.092 2°48.519 22.0352 0.063304 0.341091 38.838149
2009-09-08 07:53:46 51°25.092 2°48.511 22.0353 0.063201 0.340508 38.838149
2009-09-08 07:53:51 51°25.093 2°48.503 22.0363 0.063098 0.339925 38.838149
2009-09-08 07:53:56 51°25.094 2°48.495 22.0396 0.060628 0.326225 38.872973
2009-09-08 07:54:01 51°25.096 2°48.488 22.0483 0.063921 0.344471 38.872973
2009-09-08 07:54:06 51°25.097 2°48.48 22.0495 0.063921 0.344471 38.872973
2009-09-08 07:54:10 51°25.098 2°48.475 22.0686 0.06423 0.346197 38.872973
2009-09-08 07:54:16 51°25.1 2°48.467 22.0697 0.064333 0.346793 38.872973
2009-09-08 07:54:21 51°25.102 2°48.46 22.0545 0.063818 0.343935 38.838149
2009-09-08 07:54:26 51°25.104 2°48.454 22.0583 0.065465 0.35309 38.838149
2009-09-08 07:54:31 51°25.106 2°48.449 22.0584 0.065156 0.35138 38.838149
2009-09-08 07:54:36 51°25.108 2°48.443 22.0632 0.065156 0.35138 38.838149
2009-09-08 07:54:41 51°25.111 2°48.438 22.0604 0.066494 0.358839 38.838149
2009-09-08 07:54:46 51°25.113 2°48.433 22.0711 0.066083 0.356598 38.838149
2009-09-08 07:54:51 51°25.115 2°48.428 22.0597 0.062584 0.337164 38.838149
2009-09-08 07:54:56 51°25.118 2°48.424 22.0597 0.062069 0.334316 38.838149
2009-09-08 07:55:01 51°25.12 2°48.42 22.0599 0.061143 0.329154 38.838149
2009-09-08 07:55:06 51°25.122 2°48.416 22.0608 0.061143 0.329154 38.838149
2009-09-08 07:55:10 51°25.125 2°48.414 22.0504 0.063818 0.343971 38.838149
2009-09-08 07:55:16 51°25.128 2°48.41 22.0501 0.06176 0.332518 38.838149
2009-09-08 07:55:21 51°25.13 2°48.407 22.0549 0.060628 0.326219 38.838149
2009-09-08 07:55:26 51°25.132 2°48.405 22.0564 0.062275 0.335324 38.838149
2009-09-08 07:55:31 51°25.135 2°48.402 22.0559 0.061966 0.333589 38.838149
2009-09-08 07:55:36 51°25.137 2°48.4 22.0422 0.061966 0.333589 38.838149
2009-09-08 07:55:41 51°25.14 2°48.399 22.0525 0.061452 0.330727 38.838149
2009-09-08 07:55:46 51°25.142 2°48.397 22.0549 0.063613 0.342715 38.838149
2009-09-08 07:55:51 51°25.144 2°48.396 22.062 0.060937 0.327911 38.872973
2009-09-08 07:55:56 51°25.146 2°48.395 22.0521 0.06104 0.32851 38.872973
2009-09-08 07:56:01 51°25.149 2°48.394 22.0692 0.06176 0.332529 38.838149
2009-09-08 07:56:06 51°25.15 2°48.393 22.0605 0.06176 0.332529 38.838149
2009-09-08 07:56:10 51°25.152 2°48.393 22.0641 0.061657 0.331982 38.838149
2009-09-08 07:56:16 51°25.154 2°48.393 22.0715 0.061452 0.330859 38.838149
2009-09-08 07:56:21 51°25.156 2°48.393 22.0587 0.061554 0.331435 38.838149
2009-09-08 07:56:26 51°25.158 2°48.394 22.05 0.062378 0.336005 38.838149
2009-09-08 07:56:31 51°25.159 2°48.394 22.0673 0.061143 0.329142 38.838149
2009-09-08 07:56:36 51°25.161 2°48.395 22.076 0.061143 0.329142 38.838149
2009-09-08 07:56:41 51°25.162 2°48.396 22.0736 0.061349 0.330254 38.838149
2009-09-08 07:56:46 51°25.163 2°48.397 22.0667 0.060731 0.326828 38.838149
2009-09-08 07:56:51 51°25.164 2°48.398 22.0682 0.059393 0.319414 38.838149
2009-09-08 07:56:56 51°25.164 2°48.4 22.0625 0.058673 0.31542 38.838149
2009-09-08 07:57:01 51°25.165 2°48.401 22.0685 0.059188 0.318248 38.838149
2009-09-08 07:57:06 51°25.166 2°48.402 22.0684 0.059188 0.318248 38.838149
2009-09-08 07:57:11 51°25.166 2°48.404 22.0761 0.058776 0.315967 38.838149
2009-09-08 07:57:16 51°25.166 2°48.406 22.0849 0.060937 0.32794 38.838149
2009-09-08 07:57:21 51°25.166 2°48.408 22.0943 0.066597 0.359456 38.838149
2009-09-08 07:57:26 51°25.166 2°48.411 22.0918 0.066288 0.357799 38.838149
2009-09-08 07:57:31 51°25.166 2°48.415 22.0943 0.064127 0.345788 38.872973
2009-09-08 07:57:36 51°25.166 2°48.419 22.0892 0.064127 0.345788 38.872973
2009-09-08 07:57:41 51°25.166 2°48.424 22.1049 0.063098 0.340072 38.838149
2009-09-08 07:57:46 51°25.165 2°48.43 22.1016 0.065156 0.351514 38.838149
2009-09-08 07:57:51 51°25.164 2°48.436 22.0829 0.065259 0.352086 38.838149
2009-09-08 07:57:56 51°25.163 2°48.442 22.0766 0.063613 0.342923 38.838149
2009-09-08 07:58:01 51°25.161 2°48.449 22.0798 0.061863 0.333198 38.838149
2009-09-08 07:58:06 51°25.159 2°48.456 22.0698 0.061863 0.333198 38.838149
2009-09-08 07:58:11 51°25.157 2°48.462 22.0836 0.062275 0.335452 38.838149
2009-09-08 07:58:16 51°25.154 2°48.469 22.0926 0.060937 0.328013 38.838149
2009-09-08 07:58:21 51°25.151 2°48.476 22.0858 0.062481 0.336564 38.838149
2009-09-08 07:58:26 51°25.147 2°48.483 22.0721 0.06104 0.328572 38.838149
2009-09-08 07:58:30 51°25.144 2°48.488 22.0759 0.063613 0.342852 38.838149
2009-09-08 07:58:36 51°25.139 2°48.495 22.0969 0.063613 0.342852 38.838149
2009-09-08 07:58:41 51°25.135 2°48.5 22.0972 0.064642 0.348586 38.838149
2009-09-08 07:58:46 51°25.131 2°48.505 22.0839 0.06423 0.346311 38.838149
2009-09-08 07:58:51 51°25.126 2°48.509 22.0856 0.064127 0.34574 38.838149
2009-09-08 07:58:56 51°25.122 2°48.513 22.092 0.062686 0.337753 38.838149
2009-09-08 07:59:01 51°25.117 2°48.517 22.1074 0.064539 0.348051 38.838149